Darstellungsparameter: Aktuell verwendete Einstellungen:
Skalierung der Graphiken ... ?
xyx+y,   Skalierungsfaktor:      Skalierung: Modus: x, Faktor: 1
Darstellungszeitraum ... ?
Vom - - bis: - -   Zeitraum: 24.02.2004 - 02.03.2004
Min/Max/Avg-Anzeige ... ?
Zeige MMA aktuell
Zeige MMA Monat
Zeige MMA alles
Zeige --A aktuell
Zeige --A Monat
Zeige --A alles
Keine MMA-Anzeige
MMA:
Average (ber die Originaldaten)
MMA-Basis: 24.02.2004 - 02.03.2004
Quicknavigation für Darstellung... ?
Tage:      1T, 2T, 3T, 5T -1T -2T -3T -5T +1T +2T +3T +5T
Wochen: 1W, 2W, 3W -1W -2W -3W +1W +2W +3W
Monate: 1M, 3M, 6M -1M -3M -6M +1M +3M +6M
Jahre:    1J, 3J, 5J, 10J -1J -3J -5J -10J +1J +3J +5J +10J
Nutze für die Darstellung ... ?
Originaldaten oder Mittelwerte auf ...
Stundenbasis Tagesbasis Wochenbasis
Monatsbasis Jahresbasis      Datenbasis: Original-Daten
Darstellen als:
Statistik (Auto) Statistik J:M      Darstellung:
Zur Graphik,    zurück zur Übersicht aller Sensoren.
 
Tabellarische Datenbersicht: ?
 
Sensor: Nr:Datum:Temp:Abs-Feuchte:Windchill:Wind:
Aussen-T/F 1 24-02-2004 00:02:01 -3.2 C 2.83 g/m*3 -3.2 C 0 km/h
2 24-02-2004 00:14:01 -3.2 C 2.83 g/m*3 -3.2 C 0 km/h
3 24-02-2004 00:26:01 -3.4 C 2.75 g/m*3 -3.4 C 0 km/h
4 24-02-2004 00:38:01 -3.2 C 2.79 g/m*3 -3.2 C 0 km/h
5 24-02-2004 00:50:01 -3.4 C 2.79 g/m*3 -3.4 C 0 km/h
6 24-02-2004 01:02:01 -3.5 C 2.77 g/m*3 -3.5 C 0 km/h
7 24-02-2004 01:14:01 -3.7 C 2.77 g/m*3 -3.7 C 0 km/h
8 24-02-2004 01:26:01 -3.7 C 2.77 g/m*3 -3.7 C 0 km/h
9 24-02-2004 01:38:01 -3.8 C 2.75 g/m*3 -3.8 C 0 km/h
10 24-02-2004 01:50:00 -4 C 2.71 g/m*3 -4 C 0 km/h
11 24-02-2004 02:02:00 -4 C 2.71 g/m*3 -4 C 0 km/h
12 24-02-2004 02:14:00 -4 C 2.71 g/m*3 -4 C 0 km/h
13 24-02-2004 02:26:58 -4.2 C 2.67 g/m*3 -4.2 C 0 km/h
14 24-02-2004 02:38:57 -4.3 C 2.65 g/m*3 -4.3 C 0 km/h
15 24-02-2004 02:51:03 -4.5 C 2.61 g/m*3 -4.5 C 0 km/h
16 24-02-2004 03:03:03 -4.6 C 2.59 g/m*3 -4.6 C 0 km/h
17 24-02-2004 03:15:02 -4.6 C 2.59 g/m*3 -4.6 C 0 km/h
18 24-02-2004 03:27:02 -4.8 C 2.56 g/m*3 -4.8 C 0 km/h
19 24-02-2004 03:39:00 -4.8 C 2.56 g/m*3 -4.8 C 0 km/h
20 24-02-2004 03:51:00 -5.1 C 2.47 g/m*3 -5.1 C 0 km/h
21 24-02-2004 04:03:00 -4.9 C 2.5 g/m*3 -4.9 C 0 km/h
22 24-02-2004 04:15:59 -5 C 2.49 g/m*3 -5 C 0 km/h
23 24-02-2004 04:27:59 -5.3 C 2.43 g/m*3 -5.3 C 0 km/h
24 24-02-2004 04:39:58 -5.2 C 2.45 g/m*3 -5.2 C 0 km/h
25 24-02-2004 04:51:01 -5.3 C 2.43 g/m*3 -5.3 C 0 km/h
Sensor: Nr:Datum:Temp:Abs-Feuchte:Windchill:Wind:
Aussen-T/F 26 24-02-2004 05:03:01 -5.6 C 2.38 g/m*3 -5.6 C 0 km/h
27 24-02-2004 05:15:01 -5.7 C 2.36 g/m*3 -5.7 C 0 km/h
28 24-02-2004 05:27:01 -5.6 C 2.38 g/m*3 -5.6 C 0 km/h
29 24-02-2004 05:39:01 -5.6 C 2.38 g/m*3 -5.6 C 0 km/h
30 24-02-2004 05:51:00 -5.8 C 2.35 g/m*3 -5.8 C 0 km/h
31 24-02-2004 06:03:00 -5.8 C 2.35 g/m*3 -5.8 C 0 km/h
32 24-02-2004 06:15:59 -6 C 2.31 g/m*3 -6 C 0 km/h
33 24-02-2004 06:27:59 -6.1 C 2.3 g/m*3 -6.1 C 0 km/h
34 24-02-2004 06:39:57 -6.1 C 2.3 g/m*3 -6.1 C 0 km/h
35 24-02-2004 06:51:01 -6.1 C 2.3 g/m*3 -6.1 C 0 km/h
36 24-02-2004 07:03:01 -6.2 C 2.25 g/m*3 -6.2 C 0 km/h
37 24-02-2004 07:15:01 -6.2 C 2.28 g/m*3 -6.2 C 0 km/h
38 24-02-2004 07:27:01 -6.1 C 2.26 g/m*3 -6.1 C 0 km/h
39 24-02-2004 07:39:01 -6 C 2.28 g/m*3 -6 C 0 km/h
40 24-02-2004 07:51:00 -5.7 C 2.3 g/m*3 -5.7 C 0 km/h
41 24-02-2004 08:03:59 -5.5 C 2.3 g/m*3 -5.5 C 0 km/h
42 24-02-2004 08:15:58 -5.3 C 2.3 g/m*3 -5.3 C 0 km/h
43 24-02-2004 08:27:58 -4.8 C 2.38 g/m*3 -4.8 C 0 km/h
44 24-02-2004 08:39:57 -4.4 C 2.38 g/m*3 -4.4 C 0 km/h
45 24-02-2004 08:51:01 -4.4 C 2.38 g/m*3 -4.4 C 0 km/h
46 24-02-2004 09:03:01 -4.1 C 2.43 g/m*3 -4.1 C 0 km/h
47 24-02-2004 09:15:01 -3.9 C 2.47 g/m*3 -3.9 C 0 km/h
48 24-02-2004 09:27:01 -3.5 C 2.54 g/m*3 -3.5 C 0 km/h
49 24-02-2004 09:39:01 -3.1 C 2.57 g/m*3 -3.1 C 0 km/h
50 24-02-2004 09:51:01 -2.6 C 2.63 g/m*3 -2.6 C 0 km/h
Sensor: Nr:Datum:Temp:Abs-Feuchte:Windchill:Wind:
Aussen-T/F 51 24-02-2004 10:03:01 -2.3 C 2.64 g/m*3 -2.3 C 0 km/h
52 24-02-2004 10:15:01 -1.9 C 2.72 g/m*3 -1.9 C 0 km/h
53 24-02-2004 10:27:01 -1.4 C 2.73 g/m*3 -1.4 C 0 km/h
54 24-02-2004 10:39:01 -1.1 C 2.74 g/m*3 -1.1 C 0 km/h
55 24-02-2004 10:51:01 -0.6 C 2.79 g/m*3 -0.6 C 0 km/h
56 24-02-2004 11:03:01 -0.1 C 2.84 g/m*3 -0.1 C 0 km/h
57 24-02-2004 11:15:01 0 C 2.71 g/m*3 0 C 0 km/h
58 24-02-2004 11:27:01 0.2 C 2.75 g/m*3 0.2 C 0 km/h
59 24-02-2004 11:39:01 0.5 C 2.76 g/m*3 0.5 C 0 km/h
60 24-02-2004 11:51:01 0.8 C 2.66 g/m*3 0.8 C 0 km/h
61 24-02-2004 12:03:01 1.3 C 2.7 g/m*3 1.3 C 0 km/h
62 24-02-2004 12:15:01 1.9 C 2.76 g/m*3 1.9 C 0 km/h
63 24-02-2004 12:27:01 2.3 C 2.61 g/m*3 2.3 C 0 km/h
64 24-02-2004 12:39:01 2.3 C 2.55 g/m*3 2.3 C 0 km/h
65 24-02-2004 12:51:01 2.5 C 2.53 g/m*3 2.5 C 0 km/h
66 24-02-2004 13:03:02 2.6 C 2.43 g/m*3 2.6 C 0 km/h
67 24-02-2004 13:15:01 3.1 C 2.39 g/m*3 3.1 C 0 km/h
68 24-02-2004 13:27:01 3.1 C 2.39 g/m*3 3.1 C 0 km/h
69 24-02-2004 13:39:01 3.4 C 2.44 g/m*3 3.4 C 0 km/h
70 24-02-2004 13:51:01 3.8 C 2.51 g/m*3 3.8 C 0 km/h
71 24-02-2004 14:03:01 3.3 C 2.49 g/m*3 3.3 C 0 km/h
72 24-02-2004 14:15:01 3.4 C 2.63 g/m*3 3.4 C 0 km/h
73 24-02-2004 14:27:01 3.5 C 2.71 g/m*3 3.5 C 0 km/h
74 24-02-2004 14:39:01 3.5 C 2.83 g/m*3 3.5 C 0 km/h
75 24-02-2004 14:51:00 3.3 C 2.79 g/m*3 3.3 C 0 km/h
Sensor: Nr:Datum:Temp:Abs-Feuchte:Windchill:Wind:
Aussen-T/F 76 24-02-2004 15:03:00 3.3 C 2.79 g/m*3 3.3 C 0 km/h
77 24-02-2004 15:15:59 3.2 C 2.83 g/m*3 3.2 C 0 km/h
78 24-02-2004 15:27:59 3.2 C 2.83 g/m*3 3.2 C 0 km/h
79 24-02-2004 15:39:58 3.3 C 2.85 g/m*3 3.3 C 0 km/h
80 24-02-2004 15:51:01 3.3 C 2.85 g/m*3 3.3 C 0 km/h
81 24-02-2004 16:03:01 3.2 C 2.83 g/m*3 3.2 C 0 km/h
82 24-02-2004 16:15:01 3.2 C 2.89 g/m*3 3.2 C 0 km/h
83 24-02-2004 16:27:01 3 C 2.85 g/m*3 3 C 0 km/h
84 24-02-2004 16:39:01 2.7 C 2.91 g/m*3 2.7 C 0 km/h
85 24-02-2004 16:51:01 2.7 C 2.97 g/m*3 2.7 C 0 km/h
86 24-02-2004 17:03:01 2.7 C 3.03 g/m*3 2.7 C 0 km/h
87 24-02-2004 17:15:01 2.7 C 3.09 g/m*3 2.7 C 0 km/h
88 24-02-2004 17:27:01 2.5 C 3.1 g/m*3 2.5 C 0 km/h
89 24-02-2004 17:39:01 2.1 C 3.13 g/m*3 2.1 C 0 km/h
90 24-02-2004 17:51:00 1.8 C 3.23 g/m*3 1.8 C 0 km/h
91 24-02-2004 18:03:00 1.7 C 3.27 g/m*3 1.7 C 0 km/h
92 24-02-2004 18:15:59 1.7 C 3.27 g/m*3 1.7 C 0 km/h
93 24-02-2004 18:27:59 1.6 C 3.24 g/m*3 1.6 C 0 km/h
94 24-02-2004 18:39:58 1.6 C 3.24 g/m*3 1.6 C 0 km/h
95 24-02-2004 18:51:01 1.5 C 3.22 g/m*3 1.5 C 0 km/h
96 24-02-2004 19:03:01 1.6 C 3.24 g/m*3 1.6 C 0 km/h
97 24-02-2004 19:15:01 1.6 C 3.19 g/m*3 1.6 C 0 km/h
98 24-02-2004 19:27:01 1.6 C 3.19 g/m*3 1.6 C 0 km/h
99 24-02-2004 19:39:02 1.5 C 3.17 g/m*3 1.5 C 0 km/h
100 24-02-2004 19:51:00 1.5 C 3.12 g/m*3 1.5 C 0 km/h
Sensor: Nr:Datum:Temp:Abs-Feuchte:Windchill:Wind:
Aussen-T/F 101 24-02-2004 20:03:00 1.4 C 3.09 g/m*3 1.4 C 0 km/h
102 24-02-2004 20:15:59 1.4 C 3.09 g/m*3 1.4 C 0 km/h
103 24-02-2004 20:27:59 1.4 C 3.09 g/m*3 1.4 C 0 km/h
104 24-02-2004 20:39:57 1.2 C 3.05 g/m*3 1.2 C 0 km/h
105 24-02-2004 20:51:01 1.2 C 3.1 g/m*3 1.2 C 0 km/h
106 24-02-2004 21:03:01 1.2 C 3.1 g/m*3 1.2 C 0 km/h
107 24-02-2004 21:15:01 1.2 C 3.05 g/m*3 1.2 C 0 km/h
108 24-02-2004 21:27:01 1.3 C 3.07 g/m*3 1.3 C 0 km/h
109 24-02-2004 21:39:01 1.2 C 3.1 g/m*3 1.2 C 0 km/h
110 24-02-2004 21:51:01 1.1 C 3.14 g/m*3 1.1 C 0 km/h
111 24-02-2004 22:03:00 1.2 C 3.16 g/m*3 1.2 C 0 km/h
112 24-02-2004 22:15:58 1.3 C 3.18 g/m*3 1.3 C 0 km/h
113 24-02-2004 22:27:58 1.3 C 3.18 g/m*3 1.3 C 0 km/h
114 24-02-2004 22:39:57 1.3 C 3.23 g/m*3 1.3 C 0 km/h
115 24-02-2004 22:51:01 1.3 C 3.23 g/m*3 1.3 C 0 km/h
116 24-02-2004 23:03:01 1.4 C 3.25 g/m*3 1.4 C 0 km/h
117 24-02-2004 23:15:01 1.3 C 3.34 g/m*3 1.3 C 0 km/h
118 24-02-2004 23:27:01 1.3 C 3.44 g/m*3 1.3 C 0 km/h
119 24-02-2004 23:39:01 1.3 C 3.5 g/m*3 1.3 C 0 km/h
120 24-02-2004 23:51:01 1.2 C 3.53 g/m*3 1.2 C 0 km/h
121 25-02-2004 00:03:01 1.2 C 3.53 g/m*3 1.2 C 0 km/h
122 25-02-2004 00:15:01 1.5 C 3.49 g/m*3 1.5 C 0 km/h
123 25-02-2004 00:27:01 1.5 C 3.44 g/m*3 1.5 C 0 km/h
124 25-02-2004 00:39:02 1.6 C 3.41 g/m*3 1.6 C 0 km/h
125 25-02-2004 00:51:00 1.6 C 3.41 g/m*3 1.6 C 0 km/h
Sensor: Nr:Datum:Temp:Abs-Feuchte:Windchill:Wind:
Aussen-T/F 126 25-02-2004 01:03:00 1.6 C 3.41 g/m*3 1.6 C 0 km/h
127 25-02-2004 01:15:59 1.6 C 3.41 g/m*3 1.6 C 0 km/h
128 25-02-2004 01:27:59 1.6 C 3.41 g/m*3 1.6 C 0 km/h
129 25-02-2004 01:39:58 1.5 C 3.44 g/m*3 1.5 C 0 km/h
130 25-02-2004 01:51:01 1.5 C 3.49 g/m*3 1.5 C 0 km/h
131 25-02-2004 02:03:01 1.5 C 3.49 g/m*3 1.5 C 0 km/h
132 25-02-2004 02:15:01 1.4 C 3.47 g/m*3 1.4 C 0 km/h
133 25-02-2004 02:27:01 1.2 C 3.58 g/m*3 1.2 C 0 km/h
134 25-02-2004 02:39:00 1.2 C 3.58 g/m*3 1.2 C 0 km/h
135 25-02-2004 02:52:03 1.2 C 3.58 g/m*3 1.2 C 0 km/h
136 25-02-2004 03:04:03 1.3 C 3.55 g/m*3 1.3 C 0 km/h
137 25-02-2004 03:16:02 1.3 C 3.55 g/m*3 1.3 C 0 km/h
138 25-02-2004 03:28:02 1.3 C 3.5 g/m*3 1.3 C 0 km/h
139 25-02-2004 03:40:00 1.3 C 3.55 g/m*3 1.3 C 0 km/h
140 25-02-2004 03:52:00 1.2 C 3.63 g/m*3 1.2 C 0 km/h
141 25-02-2004 04:04:00 1 C 3.74 g/m*3 1 C 0 km/h
142 25-02-2004 04:16:59 0.7 C 3.81 g/m*3 0.7 C 0 km/h
143 25-02-2004 04:28:59 0.7 C 3.86 g/m*3 0.7 C 0 km/h
144 25-02-2004 04:40:58 0.7 C 3.86 g/m*3 0.7 C 0 km/h
145 25-02-2004 04:52:00 0.7 C 3.81 g/m*3 0.7 C 0 km/h
146 25-02-2004 05:04:00 0.6 C 3.89 g/m*3 0.6 C 0 km/h
147 25-02-2004 05:16:00 0.6 C 3.89 g/m*3 0.6 C 0 km/h
148 25-02-2004 05:28:00 0.5 C 3.91 g/m*3 0.5 C 0 km/h
149 25-02-2004 05:40:00 0.5 C 3.96 g/m*3 0.5 C 0 km/h
150 25-02-2004 05:52:01 0.4 C 3.93 g/m*3 0.4 C 0 km/h
Sensor: Nr:Datum:Temp:Abs-Feuchte:Windchill:Wind:
Aussen-T/F 151 25-02-2004 06:04:01 0.5 C 3.96 g/m*3 0.5 C 0 km/h
152 25-02-2004 06:16:01 0.5 C 3.96 g/m*3 0.5 C 0 km/h
153 25-02-2004 06:28:01 0.5 C 3.96 g/m*3 0.5 C 0 km/h
154 25-02-2004 06:40:01 0.6 C 3.99 g/m*3 0.6 C 0 km/h
155 25-02-2004 06:52:00 0.5 C 4.01 g/m*3 0.5 C 0 km/h
156 25-02-2004 07:04:00 0.4 C 4.03 g/m*3 0.4 C 0 km/h
157 25-02-2004 07:16:58 0.4 C 4.08 g/m*3 0.4 C 0 km/h
158 25-02-2004 07:28:58 0.4 C 4.08 g/m*3 0.4 C 0 km/h
159 25-02-2004 07:40:57 0.4 C 4.08 g/m*3 0.4 C 0 km/h
160 25-02-2004 07:52:01 0.5 C 4.11 g/m*3 0.5 C 0 km/h
161 25-02-2004 08:04:01 0.5 C 4.11 g/m*3 0.5 C 0 km/h
162 25-02-2004 08:16:01 0.4 C 4.13 g/m*3 0.4 C 0 km/h
163 25-02-2004 08:28:01 0.4 C 4.13 g/m*3 0.4 C 0 km/h
164 25-02-2004 08:40:01 0.4 C 4.18 g/m*3 0.4 C 0 km/h
165 25-02-2004 08:52:00 0.4 C 4.18 g/m*3 0.4 C 0 km/h
166 25-02-2004 09:04:59 0.4 C 4.18 g/m*3 0.4 C 0 km/h
167 25-02-2004 09:16:58 0.5 C 4.21 g/m*3 0.5 C 0 km/h
168 25-02-2004 09:28:58 0.6 C 4.24 g/m*3 0.6 C 0 km/h
169 25-02-2004 09:40:57 0.8 C 4.2 g/m*3 0.8 C 0 km/h
170 25-02-2004 09:52:01 1 C 4.2 g/m*3 1 C 0 km/h
171 25-02-2004 10:04:01 1.2 C 4.21 g/m*3 1.2 C 0 km/h
172 25-02-2004 10:16:01 1.5 C 4.3 g/m*3 1.5 C 0 km/h
173 25-02-2004 10:28:01 1.6 C 4.33 g/m*3 1.6 C 0 km/h
174 25-02-2004 10:40:00 1.9 C 4.36 g/m*3 1.9 C 0 km/h
175 25-02-2004 10:52:01 2.2 C 4.34 g/m*3 2.2 C 0 km/h
Sensor: Nr:Datum:Temp:Abs-Feuchte:Windchill:Wind:
Aussen-T/F 176 25-02-2004 11:04:01 2.2 C 4.22 g/m*3 2.2 C 0 km/h
177 25-02-2004 11:16:01 2.6 C 4.28 g/m*3 2.6 C 0 km/h
178 25-02-2004 11:28:01 3 C 4.22 g/m*3 3 C 0 km/h
179 25-02-2004 11:40:01 3.7 C 4.24 g/m*3 3.7 C 0 km/h
180 25-02-2004 11:52:00 3.6 C 4.02 g/m*3 3.6 C 0 km/h
181 25-02-2004 12:04:00 3.4 C 4.03 g/m*3 3.4 C 0 km/h
182 25-02-2004 12:16:59 3.7 C 3.99 g/m*3 3.7 C 0 km/h
183 25-02-2004 12:28:59 3.8 C 4.02 g/m*3 3.8 C 0 km/h
184 25-02-2004 12:40:58 3.8 C 3.95 g/m*3 3.8 C 0 km/h
185 25-02-2004 12:52:01 3.8 C 3.95 g/m*3 3.8 C 0 km/h
186 25-02-2004 13:04:00 3.8 C 3.83 g/m*3 3.8 C 0 km/h
187 25-02-2004 13:16:00 3.6 C 3.84 g/m*3 3.6 C 0 km/h
188 25-02-2004 13:28:00 3.7 C 3.99 g/m*3 3.7 C 0 km/h
189 25-02-2004 13:40:00 4.4 C 3.98 g/m*3 4.4 C 0 km/h
190 25-02-2004 13:52:01 5 C 3.81 g/m*3 5 C 0 km/h
191 25-02-2004 14:04:01 5 C 3.67 g/m*3 5 C 0 km/h
192 25-02-2004 14:16:01 4.6 C 3.57 g/m*3 4.6 C 0 km/h
193 25-02-2004 14:28:01 4.4 C 3.59 g/m*3 4.4 C 0 km/h
194 25-02-2004 14:40:01 4.3 C 3.5 g/m*3 4.3 C 0 km/h
195 25-02-2004 14:52:01 4.1 C 3.52 g/m*3 4.1 C 0 km/h
196 25-02-2004 15:04:01 4.2 C 3.54 g/m*3 4.2 C 0 km/h
197 25-02-2004 15:16:01 4 C 3.5 g/m*3 4 C 0 km/h
198 25-02-2004 15:28:01 3.7 C 3.55 g/m*3 3.7 C 0 km/h
199 25-02-2004 15:40:01 3.4 C 3.66 g/m*3 3.4 C 0 km/h
200 25-02-2004 15:52:00 3.1 C 3.77 g/m*3 3.1 C 0 km/h
Sensor: Nr:Datum:Temp:Abs-Feuchte:Windchill:Wind:
Aussen-T/F 201 25-02-2004 16:04:00 3.3 C 4.06 g/m*3 3.3 C 0 km/h
202 25-02-2004 16:16:58 1.1 C 3.76 g/m*3 1.1 C 0 km/h
203 25-02-2004 16:28:58 0.8 C 3.99 g/m*3 0.8 C 0 km/h
204 25-02-2004 16:40:57 0.7 C 4.02 g/m*3 0.7 C 0 km/h
205 25-02-2004 16:52:01 0.7 C 4.02 g/m*3 0.7 C 0 km/h
206 25-02-2004 17:04:01 0.6 C 4.04 g/m*3 0.6 C 0 km/h
207 25-02-2004 17:16:01 0.7 C 4.07 g/m*3 0.7 C 0 km/h
208 25-02-2004 17:28:01 0.7 C 4.07 g/m*3 0.7 C 0 km/h
209 25-02-2004 17:40:01 0.7 C 4.07 g/m*3 0.7 C 0 km/h
210 25-02-2004 17:52:00 0.6 C 4.04 g/m*3 0.6 C 0 km/h
211 25-02-2004 18:04:00 0.6 C 4.04 g/m*3 0.6 C 0 km/h
212 25-02-2004 18:16:59 0.7 C 4.07 g/m*3 0.7 C 0 km/h
213 25-02-2004 18:28:59 0.7 C 4.12 g/m*3 0.7 C 0 km/h
214 25-02-2004 18:40:58 0.5 C 4.01 g/m*3 0.5 C 0 km/h
215 25-02-2004 18:52:01 0.3 C 4.01 g/m*3 0.3 C 0 km/h
216 25-02-2004 19:04:02 0.3 C 4.01 g/m*3 0.3 C 0 km/h
217 25-02-2004 19:16:01 0.1 C 3.95 g/m*3 0.1 C 0 km/h
218 25-02-2004 19:28:01 0.1 C 4 g/m*3 0.1 C 0 km/h
219 25-02-2004 19:40:01 0.1 C 3.95 g/m*3 0.1 C 0 km/h
220 25-02-2004 19:52:00 0.1 C 3.95 g/m*3 0.1 C 0 km/h
221 25-02-2004 20:04:00 0.1 C 3.95 g/m*3 0.1 C 0 km/h
222 25-02-2004 20:16:58 0 C 3.92 g/m*3 0 C 0 km/h
223 25-02-2004 20:28:58 0 C 3.92 g/m*3 0 C 0 km/h
224 25-02-2004 20:40:57 0 C 3.92 g/m*3 0 C 0 km/h
225 25-02-2004 20:52:01 0 C 3.92 g/m*3 0 C 0 km/h
Sensor: Nr:Datum:Temp:Abs-Feuchte:Windchill:Wind:
Aussen-T/F 226 25-02-2004 21:04:01 0.1 C 3.95 g/m*3 0.1 C 0 km/h
227 25-02-2004 21:16:01 0 C 3.92 g/m*3 0 C 0 km/h
228 25-02-2004 21:28:01 -0.1 C 3.9 g/m*3 -0.1 C 0 km/h
229 25-02-2004 21:40:01 -0.1 C 3.9 g/m*3 -0.1 C 0 km/h
230 25-02-2004 21:52:00 0 C 3.88 g/m*3 0 C 0 km/h
231 25-02-2004 22:04:59 0 C 3.88 g/m*3 0 C 0 km/h
232 25-02-2004 22:16:58 0 C 3.88 g/m*3 0 C 0 km/h
233 25-02-2004 22:28:58 0.1 C 3.9 g/m*3 0.1 C 0 km/h
234 25-02-2004 22:40:57 0 C 3.83 g/m*3 0 C 0 km/h
235 25-02-2004 22:52:01 0.1 C 3.85 g/m*3 0.1 C 0 km/h
236 25-02-2004 23:04:01 0 C 3.78 g/m*3 0 C 0 km/h
237 25-02-2004 23:16:01 0 C 3.78 g/m*3 0 C 0 km/h
238 25-02-2004 23:28:01 0 C 3.88 g/m*3 0 C 0 km/h
239 25-02-2004 23:40:01 0 C 3.88 g/m*3 0 C 0 km/h
240 25-02-2004 23:52:01 0 C 3.92 g/m*3 0 C 0 km/h
241 26-02-2004 00:04:01 -0.1 C 3.8 g/m*3 -0.1 C 0 km/h
242 26-02-2004 00:16:01 -0.1 C 3.8 g/m*3 -0.1 C 0 km/h
243 26-02-2004 00:28:01 -0.1 C 3.85 g/m*3 -0.1 C 0 km/h
244 26-02-2004 00:40:01 -0.1 C 3.85 g/m*3 -0.1 C 0 km/h
245 26-02-2004 00:52:01 -0.1 C 3.85 g/m*3 -0.1 C 0 km/h
246 26-02-2004 01:04:00 -0.1 C 3.85 g/m*3 -0.1 C 0 km/h
247 26-02-2004 01:16:58 -0.1 C 3.8 g/m*3 -0.1 C 0 km/h
248 26-02-2004 01:28:58 -0.1 C 3.8 g/m*3 -0.1 C 0 km/h
249 26-02-2004 01:40:57 -0.2 C 3.78 g/m*3 -0.2 C 0 km/h
250 26-02-2004 01:52:01 -0.2 C 3.78 g/m*3 -0.2 C 0 km/h
Sensor: Nr:Datum:Temp:Abs-Feuchte:Windchill:Wind:
Aussen-T/F 251 26-02-2004 02:04:01 -0.3 C 3.7 g/m*3 -0.3 C 0 km/h
252 26-02-2004 02:16:01 -0.3 C 3.65 g/m*3 -0.3 C 0 km/h
253 26-02-2004 02:28:01 -0.4 C 3.63 g/m*3 -0.4 C 0 km/h
254 26-02-2004 02:40:01 -0.6 C 3.53 g/m*3 -0.6 C 0 km/h
255 26-02-2004 02:53:02 -0.7 C 3.51 g/m*3 -0.7 C 0 km/h
256 26-02-2004 03:05:02 -1.1 C 3.41 g/m*3 -1.1 C 0 km/h
257 26-02-2004 03:17:02 -1.3 C 3.36 g/m*3 -1.3 C 0 km/h
258 26-02-2004 03:29:02 -1.4 C 3.34 g/m*3 -1.4 C 0 km/h
259 26-02-2004 03:41:00 -1.5 C 3.36 g/m*3 -1.5 C 0 km/h
260 26-02-2004 03:53:00 -1.6 C 3.34 g/m*3 -1.6 C 0 km/h
261 26-02-2004 04:05:00 -1.9 C 3.23 g/m*3 -1.9 C 0 km/h
262 26-02-2004 04:17:59 -2.1 C 3.18 g/m*3 -2.1 C 0 km/h
263 26-02-2004 04:29:59 -2.1 C 3.22 g/m*3 -2.1 C 0 km/h
264 26-02-2004 04:41:57 -1.8 C 3.29 g/m*3 -1.8 C 0 km/h
265 26-02-2004 04:53:01 -1.7 C 3.31 g/m*3 -1.7 C 0 km/h
266 26-02-2004 05:05:01 -1.6 C 3.29 g/m*3 -1.6 C 0 km/h
267 26-02-2004 05:17:01 -1.6 C 3.29 g/m*3 -1.6 C 0 km/h
268 26-02-2004 05:29:01 -1.6 C 3.29 g/m*3 -1.6 C 0 km/h
269 26-02-2004 05:41:01 -1.5 C 3.32 g/m*3 -1.5 C 0 km/h
270 26-02-2004 05:53:00 -1.6 C 3.29 g/m*3 -1.6 C 0 km/h
271 26-02-2004 06:04:59 -1.6 C 3.29 g/m*3 -1.6 C 0 km/h
272 26-02-2004 06:17:58 -1.7 C 3.27 g/m*3 -1.7 C 0 km/h
273 26-02-2004 06:29:58 -1.7 C 3.27 g/m*3 -1.7 C 0 km/h
274 26-02-2004 06:41:57 -1.7 C 3.27 g/m*3 -1.7 C 0 km/h
275 26-02-2004 06:53:01 -1.9 C 3.18 g/m*3 -1.9 C 0 km/h
Sensor: Nr:Datum:Temp:Abs-Feuchte:Windchill:Wind:
Aussen-T/F 276 26-02-2004 07:05:01 -2.1 C 3.14 g/m*3 -2.1 C 0 km/h
277 26-02-2004 07:17:01 -2.5 C 3.01 g/m*3 -2.5 C 0 km/h
278 26-02-2004 07:29:01 -2.6 C 2.99 g/m*3 -2.6 C 0 km/h
279 26-02-2004 07:41:01 -2.6 C 3.03 g/m*3 -2.6 C 0 km/h
280 26-02-2004 07:53:01 -2.3 C 3.1 g/m*3 -2.3 C 0 km/h
281 26-02-2004 08:05:01 -2 C 3.12 g/m*3 -2 C 0 km/h
282 26-02-2004 08:17:01 -1.8 C 3.04 g/m*3 -1.8 C 0 km/h
283 26-02-2004 08:29:01 -1.9 C 2.97 g/m*3 -1.9 C 0 km/h
284 26-02-2004 08:41:01 -2.1 C 2.93 g/m*3 -2.1 C 0 km/h
285 26-02-2004 08:53:00 -2.2 C 2.91 g/m*3 -2.2 C 0 km/h
286 26-02-2004 09:05:00 -2.4 C 2.91 g/m*3 -2.4 C 0 km/h
287 26-02-2004 09:17:58 -2.2 C 2.87 g/m*3 -2.2 C 0 km/h
288 26-02-2004 09:29:58 -2 C 2.87 g/m*3 -2 C 0 km/h
289 26-02-2004 09:41:57 -1.9 C 2.89 g/m*3 -1.9 C 0 km/h
290 26-02-2004 09:53:01 -1.7 C 2.93 g/m*3 -1.7 C 0 km/h
291 26-02-2004 10:05:01 -1.4 C 2.99 g/m*3 -1.4 C 0 km/h
292 26-02-2004 10:17:01 -1.1 C 3.01 g/m*3 -1.1 C 0 km/h
293 26-02-2004 10:29:01 -1.1 C 2.96 g/m*3 -1.1 C 0 km/h
294 26-02-2004 10:41:01 -0.9 C 2.91 g/m*3 -0.9 C 0 km/h
295 26-02-2004 10:53:00 -0.6 C 2.79 g/m*3 -0.6 C 0 km/h
296 26-02-2004 11:05:59 -0.4 C 2.83 g/m*3 -0.4 C 0 km/h
297 26-02-2004 11:17:58 -0.3 C 2.85 g/m*3 -0.3 C 0 km/h
298 26-02-2004 11:29:58 -0.1 C 2.74 g/m*3 -0.1 C 0 km/h
299 26-02-2004 11:41:57 0.1 C 2.73 g/m*3 0.1 C 0 km/h
300 26-02-2004 11:53:01 0.1 C 2.59 g/m*3 0.1 C 0 km/h
Sensor: Nr:Datum:Temp:Abs-Feuchte:Windchill:Wind:
Aussen-T/F 301 26-02-2004 12:05:01 0.4 C 2.59 g/m*3 0.4 C 0 km/h
302 26-02-2004 12:17:01 0.4 C 2.59 g/m*3 0.4 C 0 km/h
303 26-02-2004 12:29:01 0.5 C 2.56 g/m*3 0.5 C 0 km/h
304 26-02-2004 12:41:00 1.1 C 2.61 g/m*3 1.1 C 0 km/h
305 26-02-2004 12:53:01 1.5 C 2.52 g/m*3 1.5 C 0 km/h
306 26-02-2004 13:05:01 1.7 C 2.45 g/m*3 1.7 C 0 km/h
307 26-02-2004 13:17:01 2 C 2.5 g/m*3 2 C 0 km/h
308 26-02-2004 13:29:01 2.2 C 2.53 g/m*3 2.2 C 0 km/h
309 26-02-2004 13:41:01 2.6 C 2.43 g/m*3 2.6 C 0 km/h
310 26-02-2004 13:53:00 2.7 C 2.56 g/m*3 2.7 C 0 km/h
311 26-02-2004 14:05:00 3.2 C 2.47 g/m*3 3.2 C 0 km/h
312 26-02-2004 14:17:58 3.3 C 2.55 g/m*3 3.3 C 0 km/h
313 26-02-2004 14:29:58 3.1 C 2.45 g/m*3 3.1 C 0 km/h
314 26-02-2004 14:41:57 3.3 C 2.49 g/m*3 3.3 C 0 km/h
315 26-02-2004 14:53:01 3.4 C 2.5 g/m*3 3.4 C 0 km/h
316 26-02-2004 15:05:01 3.4 C 2.44 g/m*3 3.4 C 0 km/h
317 26-02-2004 15:17:01 2.6 C 2.37 g/m*3 2.6 C 0 km/h
318 26-02-2004 15:29:01 2.4 C 2.46 g/m*3 2.4 C 0 km/h
319 26-02-2004 15:41:01 2.6 C 2.55 g/m*3 2.6 C 0 km/h
320 26-02-2004 15:53:01 2.6 C 2.6 g/m*3 2.6 C 0 km/h
321 26-02-2004 16:05:01 2.7 C 2.62 g/m*3 2.7 C 0 km/h
322 26-02-2004 16:17:01 2.1 C 2.57 g/m*3 2.1 C 0 km/h
323 26-02-2004 16:29:01 1.7 C 2.78 g/m*3 1.7 C 0 km/h
324 26-02-2004 16:41:01 1.5 C 2.79 g/m*3 1.5 C 0 km/h
325 26-02-2004 16:53:00 1.3 C 2.86 g/m*3 1.3 C 0 km/h
Sensor: Nr:Datum:Temp:Abs-Feuchte:Windchill:Wind:
Aussen-T/F 326 26-02-2004 17:05:00 1.1 C 3.14 g/m*3 1.1 C 0 km/h
327 26-02-2004 17:17:59 1.2 C 3.16 g/m*3 1.2 C 0 km/h
328 26-02-2004 17:29:59 1.2 C 3.21 g/m*3 1.2 C 0 km/h
329 26-02-2004 17:41:57 1.1 C 3.24 g/m*3 1.1 C 0 km/h
330 26-02-2004 17:53:01 1.1 C 3.29 g/m*3 1.1 C 0 km/h
331 26-02-2004 18:05:01 1.2 C 3.26 g/m*3 1.2 C 0 km/h
332 26-02-2004 18:17:01 0.7 C 3.41 g/m*3 0.7 C 0 km/h
333 26-02-2004 18:29:01 0.5 C 3.51 g/m*3 0.5 C 0 km/h
334 26-02-2004 18:41:01 0.5 C 3.41 g/m*3 0.5 C 0 km/h
335 26-02-2004 18:53:00 0.5 C 3.31 g/m*3 0.5 C 0 km/h
336 26-02-2004 19:04:59 0.6 C 3.18 g/m*3 0.6 C 0 km/h
337 26-02-2004 19:17:58 0.6 C 3.08 g/m*3 0.6 C 0 km/h
338 26-02-2004 19:29:58 0.7 C 3.05 g/m*3 0.7 C 0 km/h
339 26-02-2004 19:41:57 0.8 C 3.02 g/m*3 0.8 C 0 km/h
340 26-02-2004 19:53:01 0.8 C 2.97 g/m*3 0.8 C 0 km/h
341 26-02-2004 20:05:01 0.6 C 2.98 g/m*3 0.6 C 0 km/h
342 26-02-2004 20:17:01 0.5 C 3.01 g/m*3 0.5 C 0 km/h
343 26-02-2004 20:29:01 0.4 C 2.99 g/m*3 0.4 C 0 km/h
344 26-02-2004 20:41:01 0.2 C 3 g/m*3 0.2 C 0 km/h
345 26-02-2004 20:53:01 0 C 2.96 g/m*3 0 C 0 km/h
346 26-02-2004 21:05:01 -0.2 C 2.91 g/m*3 -0.2 C 0 km/h
347 26-02-2004 21:17:01 -0.3 C 2.94 g/m*3 -0.3 C 0 km/h
348 26-02-2004 21:29:01 -0.4 C 2.97 g/m*3 -0.4 C 0 km/h
349 26-02-2004 21:41:01 -0.7 C 2.95 g/m*3 -0.7 C 0 km/h
350 26-02-2004 21:53:00 -1 C 2.98 g/m*3 -1 C 0 km/h
Sensor: Nr:Datum:Temp:Abs-Feuchte:Windchill:Wind:
Aussen-T/F 351 26-02-2004 22:05:00 -1.1 C 3.01 g/m*3 -1.1 C 0 km/h
352 26-02-2004 22:17:58 -1.2 C 2.94 g/m*3 -1.2 C 0 km/h
353 26-02-2004 22:29:58 -1.4 C 2.9 g/m*3 -1.4 C 0 km/h
354 26-02-2004 22:41:57 -1.7 C 2.84 g/m*3 -1.7 C 0 km/h
355 26-02-2004 22:53:01 -1.7 C 2.88 g/m*3 -1.7 C 0 km/h
356 26-02-2004 23:05:01 -1.9 C 2.89 g/m*3 -1.9 C 0 km/h
357 26-02-2004 23:17:01 -1.9 C 2.89 g/m*3 -1.9 C 0 km/h
358 26-02-2004 23:29:01 -2 C 2.87 g/m*3 -2 C 0 km/h
359 26-02-2004 23:41:01 -2.1 C 2.8 g/m*3 -2.1 C 0 km/h
360 26-02-2004 23:53:00 -2.2 C 2.83 g/m*3 -2.2 C 0 km/h
361 27-02-2004 00:05:59 -2.1 C 2.8 g/m*3 -2.1 C 0 km/h
362 27-02-2004 00:17:58 -2.2 C 2.74 g/m*3 -2.2 C 0 km/h
363 27-02-2004 00:29:58 -2.3 C 2.72 g/m*3 -2.3 C 0 km/h
364 27-02-2004 00:41:57 -2.2 C 2.7 g/m*3 -2.2 C 0 km/h
365 27-02-2004 00:53:01 -2.3 C 2.68 g/m*3 -2.3 C 0 km/h
366 27-02-2004 01:05:01 -2.3 C 2.72 g/m*3 -2.3 C 0 km/h
367 27-02-2004 01:17:01 -2.6 C 2.67 g/m*3 -2.6 C 0 km/h
368 27-02-2004 01:29:01 -2.7 C 2.65 g/m*3 -2.7 C 0 km/h
369 27-02-2004 01:41:00 -2.6 C 2.63 g/m*3 -2.6 C 0 km/h
370 27-02-2004 01:53:01 -2.8 C 2.59 g/m*3 -2.8 C 0 km/h
371 27-02-2004 02:05:01 -3.1 C 2.57 g/m*3 -3.1 C 0 km/h
372 27-02-2004 02:17:01 -3.4 C 2.56 g/m*3 -3.4 C 0 km/h
373 27-02-2004 02:29:01 -3.5 C 2.58 g/m*3 -3.5 C 0 km/h
374 27-02-2004 02:41:01 -3.7 C 2.58 g/m*3 -3.7 C 0 km/h
375 27-02-2004 02:54:01 -3.9 C 2.54 g/m*3 -3.9 C 0 km/h
Sensor: Nr:Datum:Temp:Abs-Feuchte:Windchill:Wind:
Aussen-T/F 376 27-02-2004 03:06:01 -3.7 C 2.62 g/m*3 -3.7 C 0 km/h
377 27-02-2004 03:18:00 -3.5 C 2.65 g/m*3 -3.5 C 0 km/h
378 27-02-2004 03:30:00 -3.8 C 2.56 g/m*3 -3.8 C 0 km/h
379 27-02-2004 03:42:01 -3.9 C 2.54 g/m*3 -3.9 C 0 km/h
380 27-02-2004 03:54:01 -4.1 C 2.54 g/m*3 -4.1 C 0 km/h
381 27-02-2004 04:06:00 -4 C 2.49 g/m*3 -4 C 0 km/h
382 27-02-2004 04:18:00 -4.1 C 2.47 g/m*3 -4.1 C 0 km/h
383 27-02-2004 04:30:00 -4.1 C 2.51 g/m*3 -4.1 C 0 km/h
384 27-02-2004 04:42:00 -4.3 C 2.47 g/m*3 -4.3 C 0 km/h
385 27-02-2004 04:54:01 -4.5 C 2.44 g/m*3 -4.5 C 0 km/h
386 27-02-2004 05:06:01 -4.8 C 2.42 g/m*3 -4.8 C 0 km/h
387 27-02-2004 05:18:01 -5 C 2.38 g/m*3 -5 C 0 km/h
388 27-02-2004 05:30:01 -5.1 C 2.4 g/m*3 -5.1 C 0 km/h
389 27-02-2004 05:42:01 -5.2 C 2.42 g/m*3 -5.2 C 0 km/h
390 27-02-2004 05:54:01 -5.3 C 2.4 g/m*3 -5.3 C 0 km/h
391 27-02-2004 06:06:01 -5.6 C 2.35 g/m*3 -5.6 C 0 km/h
392 27-02-2004 06:18:01 -5.7 C 2.33 g/m*3 -5.7 C 0 km/h
393 27-02-2004 06:30:01 -5.5 C 2.36 g/m*3 -5.5 C 0 km/h
394 27-02-2004 06:42:01 -5.3 C 2.4 g/m*3 -5.3 C 0 km/h
395 27-02-2004 06:54:00 -5.5 C 2.33 g/m*3 -5.5 C 0 km/h
396 27-02-2004 07:06:00 -5.8 C 2.28 g/m*3 -5.8 C 0 km/h
397 27-02-2004 07:18:59 -5.8 C 2.28 g/m*3 -5.8 C 0 km/h
398 27-02-2004 07:30:57 -5.8 C 2.28 g/m*3 -5.8 C 0 km/h
399 27-02-2004 07:42:57 -5.8 C 2.31 g/m*3 -5.8 C 0 km/h
400 27-02-2004 07:54:01 -5.8 C 2.31 g/m*3 -5.8 C 0 km/h
Sensor: Nr:Datum:Temp:Abs-Feuchte:Windchill:Wind:
Aussen-T/F 401 27-02-2004 08:06:01 -5.8 C 2.31 g/m*3 -5.8 C 0 km/h
402 27-02-2004 08:18:01 -5.7 C 2.36 g/m*3 -5.7 C 0 km/h
403 27-02-2004 08:30:01 -5.5 C 2.4 g/m*3 -5.5 C 0 km/h
404 27-02-2004 08:42:01 -5.3 C 2.4 g/m*3 -5.3 C 0 km/h
405 27-02-2004 08:54:00 -5.1 C 2.4 g/m*3 -5.1 C 0 km/h
406 27-02-2004 09:06:59 -5 C 2.38 g/m*3 -5 C 0 km/h
407 27-02-2004 09:18:58 -4.5 C 2.4 g/m*3 -4.5 C 0 km/h
408 27-02-2004 09:30:57 -4 C 2.45 g/m*3 -4 C 0 km/h
409 27-02-2004 09:42:57 -3.7 C 2.47 g/m*3 -3.7 C 0 km/h
410 27-02-2004 09:54:01 -3.4 C 2.48 g/m*3 -3.4 C 0 km/h
411 27-02-2004 10:06:01 -3 C 2.51 g/m*3 -3 C 0 km/h
412 27-02-2004 10:18:01 -2.5 C 2.6 g/m*3 -2.5 C 0 km/h
413 27-02-2004 10:30:01 -2.1 C 2.64 g/m*3 -2.1 C 0 km/h
414 27-02-2004 10:42:00 -1.6 C 2.64 g/m*3 -1.6 C 0 km/h
415 27-02-2004 10:54:01 -1.2 C 2.63 g/m*3 -1.2 C 0 km/h
416 27-02-2004 11:06:01 -0.8 C 2.61 g/m*3 -0.8 C 0 km/h
417 27-02-2004 11:18:01 -0.6 C 2.6 g/m*3 -0.6 C 0 km/h
418 27-02-2004 11:30:01 -0.4 C 2.64 g/m*3 -0.4 C 0 km/h
419 27-02-2004 11:42:01 0 C 2.76 g/m*3 0 C 0 km/h
420 27-02-2004 11:54:00 0.1 C 2.68 g/m*3 0.1 C 0 km/h
421 27-02-2004 12:06:00 0.4 C 2.49 g/m*3 0.4 C 0 km/h
422 27-02-2004 12:18:58 0.5 C 2.41 g/m*3 0.5 C 0 km/h
423 27-02-2004 12:30:57 0.4 C 2.34 g/m*3 0.4 C 0 km/h
424 27-02-2004 12:42:57 1.2 C 2.37 g/m*3 1.2 C 0 km/h
425 27-02-2004 12:54:01 1.8 C 2.36 g/m*3 1.8 C 0 km/h
Sensor: Nr:Datum:Temp:Abs-Feuchte:Windchill:Wind:
Aussen-T/F 426 27-02-2004 13:06:01 2.2 C 2.2 g/m*3 2.2 C 0 km/h
427 27-02-2004 13:18:01 2.3 C 2.33 g/m*3 2.3 C 0 km/h
428 27-02-2004 13:30:01 2.1 C 2.29 g/m*3 2.1 C 0 km/h
429 27-02-2004 13:42:01 2.7 C 2.45 g/m*3 2.7 C 0 km/h
430 27-02-2004 13:54:01 3 C 2.2 g/m*3 3 C 0 km/h
431 27-02-2004 14:06:01 3.1 C 2.21 g/m*3 3.1 C 0 km/h
432 27-02-2004 14:18:01 2.6 C 2.31 g/m*3 2.6 C 0 km/h
433 27-02-2004 14:30:01 2.5 C 2.24 g/m*3 2.5 C 0 km/h
434 27-02-2004 14:42:01 2.4 C 2.23 g/m*3 2.4 C 0 km/h
435 27-02-2004 14:54:00 2.6 C 2.31 g/m*3 2.6 C 0 km/h
436 27-02-2004 15:06:00 3.1 C 2.27 g/m*3 3.1 C 0 km/h
437 27-02-2004 15:18:59 2.7 C 2.21 g/m*3 2.7 C 0 km/h
438 27-02-2004 15:30:57 2.3 C 2.21 g/m*3 2.3 C 0 km/h
439 27-02-2004 15:42:57 2 C 2.28 g/m*3 2 C 0 km/h
440 27-02-2004 15:54:01 1.6 C 2.49 g/m*3 1.6 C 0 km/h
441 27-02-2004 16:06:01 1.4 C 2.67 g/m*3 1.4 C 0 km/h
442 27-02-2004 16:18:01 1 C 2.91 g/m*3 1 C 0 km/h
443 27-02-2004 16:30:01 1.1 C 2.93 g/m*3 1.1 C 0 km/h
444 27-02-2004 16:42:01 1 C 3.01 g/m*3 1 C 0 km/h
445 27-02-2004 16:54:00 0.5 C 2.96 g/m*3 0.5 C 0 km/h
446 27-02-2004 17:06:00 0.6 C 3.03 g/m*3 0.6 C 0 km/h
447 27-02-2004 17:18:59 0.7 C 3.05 g/m*3 0.7 C 0 km/h
448 27-02-2004 17:30:58 0.7 C 2.95 g/m*3 0.7 C 0 km/h
449 27-02-2004 17:42:58 0.8 C 2.97 g/m*3 0.8 C 0 km/h
450 27-02-2004 17:54:01 0.9 C 2.99 g/m*3 0.9 C 0 km/h
Sensor: Nr:Datum:Temp:Abs-Feuchte:Windchill:Wind:
Aussen-T/F 451 27-02-2004 18:06:01 0.7 C 2.9 g/m*3 0.7 C 0 km/h
452 27-02-2004 18:18:01 0.6 C 2.88 g/m*3 0.6 C 0 km/h
453 27-02-2004 18:30:01 0.5 C 2.86 g/m*3 0.5 C 0 km/h
454 27-02-2004 18:42:01 0.4 C 2.94 g/m*3 0.4 C 0 km/h
455 27-02-2004 18:54:00 0.1 C 2.93 g/m*3 0.1 C 0 km/h
456 27-02-2004 19:06:00 -0.3 C 2.85 g/m*3 -0.3 C 0 km/h
457 27-02-2004 19:18:59 -0.6 C 2.88 g/m*3 -0.6 C 0 km/h
458 27-02-2004 19:30:57 -0.9 C 2.87 g/m*3 -0.9 C 0 km/h
459 27-02-2004 19:42:57 -0.9 C 2.82 g/m*3 -0.9 C 0 km/h
460 27-02-2004 19:54:01 -1.1 C 2.74 g/m*3 -1.1 C 0 km/h
461 27-02-2004 20:06:01 -1.1 C 2.74 g/m*3 -1.1 C 0 km/h
462 27-02-2004 20:18:01 -1.1 C 2.69 g/m*3 -1.1 C 0 km/h
463 27-02-2004 20:30:01 -1.1 C 2.6 g/m*3 -1.1 C 0 km/h
464 27-02-2004 20:42:01 -0.8 C 2.52 g/m*3 -0.8 C 0 km/h
465 27-02-2004 20:54:00 -0.5 C 2.43 g/m*3 -0.5 C 0 km/h
466 27-02-2004 21:06:00 -0.7 C 2.35 g/m*3 -0.7 C 0 km/h
467 27-02-2004 21:18:59 -0.8 C 2.34 g/m*3 -0.8 C 0 km/h
468 27-02-2004 21:30:58 -0.9 C 2.32 g/m*3 -0.9 C 0 km/h
469 27-02-2004 21:42:58 -1.2 C 2.32 g/m*3 -1.2 C 0 km/h
470 27-02-2004 21:54:01 -1.6 C 2.38 g/m*3 -1.6 C 0 km/h
471 27-02-2004 22:06:00 -1.7 C 2.41 g/m*3 -1.7 C 0 km/h
472 27-02-2004 22:18:00 -1.9 C 2.42 g/m*3 -1.9 C 0 km/h
473 27-02-2004 22:30:00 -1.8 C 2.52 g/m*3 -1.8 C 0 km/h
474 27-02-2004 22:42:00 -1.5 C 2.53 g/m*3 -1.5 C 0 km/h
475 27-02-2004 22:54:01 -1.4 C 2.55 g/m*3 -1.4 C 0 km/h
Sensor: Nr:Datum:Temp:Abs-Feuchte:Windchill:Wind:
Aussen-T/F 476 27-02-2004 23:06:01 -1.1 C 2.6 g/m*3 -1.1 C 0 km/h
477 27-02-2004 23:18:01 -1.1 C 2.69 g/m*3 -1.1 C 0 km/h
478 27-02-2004 23:30:01 -1 C 2.67 g/m*3 -1 C 0 km/h
479 27-02-2004 23:42:00 -1.1 C 2.69 g/m*3 -1.1 C 0 km/h
480 27-02-2004 23:54:01 -1.4 C 2.64 g/m*3 -1.4 C 0 km/h
481 28-02-2004 00:06:01 -1.5 C 2.66 g/m*3 -1.5 C 0 km/h
482 28-02-2004 00:18:01 -1.4 C 2.64 g/m*3 -1.4 C 0 km/h
483 28-02-2004 00:30:01 -1.4 C 2.64 g/m*3 -1.4 C 0 km/h
484 28-02-2004 00:42:01 -1.4 C 2.64 g/m*3 -1.4 C 0 km/h
485 28-02-2004 00:54:00 -1.4 C 2.64 g/m*3 -1.4 C 0 km/h
486 28-02-2004 01:06:00 -1.3 C 2.61 g/m*3 -1.3 C 0 km/h
487 28-02-2004 01:18:58 -1.2 C 2.5 g/m*3 -1.2 C 0 km/h
488 28-02-2004 01:30:57 -1.4 C 2.51 g/m*3 -1.4 C 0 km/h
489 28-02-2004 01:42:57 -1.6 C 2.47 g/m*3 -1.6 C 0 km/h
490 28-02-2004 01:54:01 -1.7 C 2.41 g/m*3 -1.7 C 0 km/h
491 28-02-2004 02:06:01 -2 C 2.4 g/m*3 -2 C 0 km/h
492 28-02-2004 02:18:01 -2.4 C 2.42 g/m*3 -2.4 C 0 km/h
493 28-02-2004 02:30:01 -2.5 C 2.36 g/m*3 -2.5 C 0 km/h
494 28-02-2004 02:42:01 -2.7 C 2.33 g/m*3 -2.7 C 0 km/h
495 28-02-2004 02:55:03 -2.9 C 2.37 g/m*3 -2.9 C 0 km/h
496 28-02-2004 03:07:03 -2.8 C 2.35 g/m*3 -2.8 C 0 km/h
497 28-02-2004 03:19:03 -2.6 C 2.42 g/m*3 -2.6 C 0 km/h
498 28-02-2004 03:31:00 -2.6 C 2.42 g/m*3 -2.6 C 0 km/h
499 28-02-2004 03:43:00 -2.7 C 2.45 g/m*3 -2.7 C 0 km/h
500 28-02-2004 03:55:00 -2.7 C 2.49 g/m*3 -2.7 C 0 km/h
Sensor: Nr:Datum:Temp:Abs-Feuchte:Windchill:Wind:
Aussen-T/F 501 28-02-2004 04:07:00 -2.7 C 2.49 g/m*3 -2.7 C 0 km/h
502 28-02-2004 04:19:59 -2.7 C 2.45 g/m*3 -2.7 C 0 km/h
503 28-02-2004 04:31:58 -2.8 C 2.47 g/m*3 -2.8 C 0 km/h
504 28-02-2004 04:43:58 -2.8 C 2.43 g/m*3 -2.8 C 0 km/h
505 28-02-2004 04:55:01 -2.7 C 2.37 g/m*3 -2.7 C 0 km/h
506 28-02-2004 05:07:01 -2.7 C 2.37 g/m*3 -2.7 C 0 km/h
507 28-02-2004 05:19:00 -2.8 C 2.39 g/m*3 -2.8 C 0 km/h
508 28-02-2004 05:31:00 -2.5 C 2.4 g/m*3 -2.5 C 0 km/h
509 28-02-2004 05:43:00 -2.5 C 2.4 g/m*3 -2.5 C 0 km/h
510 28-02-2004 05:55:01 -2.6 C 2.42 g/m*3 -2.6 C 0 km/h
511 28-02-2004 06:07:01 -2.1 C 2.47 g/m*3 -2.1 C 0 km/h
512 28-02-2004 06:19:01 -2.1 C 2.47 g/m*3 -2.1 C 0 km/h
513 28-02-2004 06:31:01 -2.2 C 2.45 g/m*3 -2.2 C 0 km/h
514 28-02-2004 06:43:01 -2.1 C 2.51 g/m*3 -2.1 C 0 km/h
515 28-02-2004 06:55:00 -2.1 C 2.51 g/m*3 -2.1 C 0 km/h
516 28-02-2004 07:07:59 -2 C 2.57 g/m*3 -2 C 0 km/h
517 28-02-2004 07:19:58 -1.9 C 2.59 g/m*3 -1.9 C 0 km/h
518 28-02-2004 07:31:57 -1.8 C 2.65 g/m*3 -1.8 C 0 km/h
519 28-02-2004 07:43:57 -1.8 C 2.65 g/m*3 -1.8 C 0 km/h
520 28-02-2004 07:55:01 -1.8 C 2.69 g/m*3 -1.8 C 0 km/h
521 28-02-2004 08:07:01 -1.9 C 2.72 g/m*3 -1.9 C 0 km/h
522 28-02-2004 08:19:01 -1.9 C 2.8 g/m*3 -1.9 C 0 km/h
523 28-02-2004 08:31:01 -1.8 C 2.86 g/m*3 -1.8 C 0 km/h
524 28-02-2004 08:43:01 -1.8 C 2.86 g/m*3 -1.8 C 0 km/h
525 28-02-2004 08:55:03 -1.7 C 2.84 g/m*3 -1.7 C 0 km/h
Sensor: Nr:Datum:Temp:Abs-Feuchte:Windchill:Wind:
Aussen-T/F 526 28-02-2004 09:07:01 -1.6 C 2.86 g/m*3 -1.6 C 0 km/h
527 28-02-2004 09:19:01 -1.2 C 2.94 g/m*3 -1.2 C 0 km/h
528 28-02-2004 09:31:01 -1 C 2.94 g/m*3 -1 C 0 km/h
529 28-02-2004 09:43:01 -0.9 C 2.96 g/m*3 -0.9 C 0 km/h
530 28-02-2004 09:55:00 -0.4 C 3.02 g/m*3 -0.4 C 0 km/h
531 28-02-2004 10:07:00 0 C 3 g/m*3 0 C 0 km/h
532 28-02-2004 10:19:59 0.1 C 2.98 g/m*3 0.1 C 0 km/h
533 28-02-2004 10:31:58 0.2 C 2.95 g/m*3 0.2 C 0 km/h
534 28-02-2004 10:43:58 0.7 C 2.95 g/m*3 0.7 C 0 km/h
535 28-02-2004 10:55:01 1 C 2.85 g/m*3 1 C 0 km/h
536 28-02-2004 11:07:01 0.8 C 3.02 g/m*3 0.8 C 0 km/h
537 28-02-2004 11:19:01 1.2 C 3.1 g/m*3 1.2 C 0 km/h
538 28-02-2004 11:31:01 0.7 C 3.05 g/m*3 0.7 C 0 km/h
539 28-02-2004 11:43:01 0.7 C 3.05 g/m*3 0.7 C 0 km/h
540 28-02-2004 11:55:00 1.3 C 3.07 g/m*3 1.3 C 0 km/h
541 28-02-2004 12:07:00 2.1 C 3.13 g/m*3 2.1 C 0 km/h
542 28-02-2004 12:19:58 2.3 C 3.01 g/m*3 2.3 C 0 km/h
543 28-02-2004 12:31:57 2.9 C 3.01 g/m*3 2.9 C 0 km/h
544 28-02-2004 12:43:57 2.6 C 2.89 g/m*3 2.6 C 0 km/h
545 28-02-2004 12:55:01 2.9 C 2.95 g/m*3 2.9 C 0 km/h
546 28-02-2004 13:07:01 3.6 C 2.97 g/m*3 3.6 C 0 km/h
547 28-02-2004 13:19:01 4.7 C 2.93 g/m*3 4.7 C 0 km/h
548 28-02-2004 13:31:01 3.8 C 2.7 g/m*3 3.8 C 0 km/h
549 28-02-2004 13:43:01 3.5 C 2.77 g/m*3 3.5 C 0 km/h
550 28-02-2004 13:55:00 5.1 C 2.8 g/m*3 5.1 C 0 km/h
Sensor: Nr:Datum:Temp:Abs-Feuchte:Windchill:Wind:
Aussen-T/F 551 28-02-2004 14:07:00 5.4 C 2.58 g/m*3 5.4 C 0 km/h
552 28-02-2004 14:19:58 4.3 C 2.59 g/m*3 4.3 C 0 km/h
553 28-02-2004 14:31:57 5 C 2.65 g/m*3 5 C 0 km/h
554 28-02-2004 14:43:57 6 C 2.54 g/m*3 6 C 0 km/h
555 28-02-2004 14:55:02 6.8 C 2.52 g/m*3 6.8 C 0 km/h
556 28-02-2004 15:07:01 7.3 C 2.45 g/m*3 7.3 C 0 km/h
557 28-02-2004 15:19:02 6.9 C 2.39 g/m*3 6.9 C 0 km/h
558 28-02-2004 15:31:03 4.9 C 2.16 g/m*3 4.9 C 0 km/h
559 28-02-2004 15:43:03 5 C 2.24 g/m*3 5 C 0 km/h
560 28-02-2004 15:55:00 6.1 C 2.41 g/m*3 6.1 C 0 km/h
561 28-02-2004 16:07:00 6.9 C 2.39 g/m*3 6.9 C 0 km/h
562 28-02-2004 16:19:59 6.7 C 2.2 g/m*3 6.7 C 0 km/h
563 28-02-2004 16:31:58 6.8 C 2.37 g/m*3 6.8 C 0 km/h
564 28-02-2004 16:43:58 6.2 C 2.28 g/m*3 6.2 C 0 km/h
565 28-02-2004 16:55:02 6.2 C 2.28 g/m*3 6.2 C 0 km/h
566 28-02-2004 17:07:01 5.9 C 2.24 g/m*3 5.9 C 0 km/h
567 28-02-2004 17:19:01 5.3 C 2.08 g/m*3 5.3 C 0 km/h
568 28-02-2004 17:31:01 4.6 C 2.12 g/m*3 4.6 C 0 km/h
569 28-02-2004 17:43:01 3.6 C 2.23 g/m*3 3.6 C 0 km/h
570 28-02-2004 17:55:00 2.6 C 2.31 g/m*3 2.6 C 0 km/h
571 28-02-2004 18:07:00 2.1 C 2.52 g/m*3 2.1 C 0 km/h
572 28-02-2004 18:19:59 1.5 C 2.58 g/m*3 1.5 C 0 km/h
573 28-02-2004 18:31:58 1 C 2.49 g/m*3 1 C 0 km/h
574 28-02-2004 18:43:58 0.7 C 2.54 g/m*3 0.7 C 0 km/h
575 28-02-2004 18:55:01 0.4 C 2.54 g/m*3 0.4 C 0 km/h
Sensor: Nr:Datum:Temp:Abs-Feuchte:Windchill:Wind:
Aussen-T/F 576 28-02-2004 19:07:01 0.2 C 2.6 g/m*3 0.2 C 0 km/h
577 28-02-2004 19:19:01 0 C 2.62 g/m*3 0 C 0 km/h
578 28-02-2004 19:36:01 -0.3 C 2.61 g/m*3 -0.3 C 0 km/h
579 28-02-2004 19:48:01 -0.4 C 2.64 g/m*3 -0.4 C 0 km/h
580 28-02-2004 20:00:01 -0.6 C 2.6 g/m*3 -0.6 C 0 km/h
581 28-02-2004 20:12:00 -0.7 C 2.63 g/m*3 -0.7 C 0 km/h
582 28-02-2004 20:24:59 -1 C 2.53 g/m*3 -1 C 0 km/h
583 28-02-2004 20:36:58 -1.1 C 2.56 g/m*3 -1.1 C 0 km/h
584 28-02-2004 20:48:01 -1.3 C 2.52 g/m*3 -1.3 C 0 km/h
585 28-02-2004 21:00:01 -1.4 C 2.51 g/m*3 -1.4 C 0 km/h
586 28-02-2004 21:12:01 -1.6 C 2.51 g/m*3 -1.6 C 0 km/h
587 28-02-2004 21:24:01 -1.8 C 2.48 g/m*3 -1.8 C 0 km/h
588 28-02-2004 21:36:01 -2 C 2.49 g/m*3 -2 C 0 km/h
589 28-02-2004 21:48:00 -2.1 C 2.55 g/m*3 -2.1 C 0 km/h
590 28-02-2004 22:00:00 -2.2 C 2.49 g/m*3 -2.2 C 0 km/h
591 28-02-2004 22:12:00 -2.3 C 2.44 g/m*3 -2.3 C 0 km/h
592 28-02-2004 22:24:58 -2.5 C 2.4 g/m*3 -2.5 C 0 km/h
593 28-02-2004 22:36:57 -2.6 C 2.38 g/m*3 -2.6 C 0 km/h
594 28-02-2004 22:48:01 -2.8 C 2.39 g/m*3 -2.8 C 0 km/h
595 28-02-2004 23:00:01 -2.9 C 2.41 g/m*3 -2.9 C 0 km/h
596 28-02-2004 23:12:01 -3 C 2.4 g/m*3 -3 C 0 km/h
597 28-02-2004 23:24:01 -3.2 C 2.44 g/m*3 -3.2 C 0 km/h
598 28-02-2004 23:36:01 -3.4 C 2.37 g/m*3 -3.4 C 0 km/h
599 29-02-2004 00:00:00 -3.4 C 2.44 g/m*3 -3.4 C 0 km/h
600 29-02-2004 00:11:59 -3.7 C 2.35 g/m*3 -3.7 C 0 km/h
Sensor: Nr:Datum:Temp:Abs-Feuchte:Windchill:Wind:
Aussen-T/F 601 29-02-2004 00:24:58 -3.9 C 2.32 g/m*3 -3.9 C 0 km/h
602 29-02-2004 00:36:57 -3.9 C 2.36 g/m*3 -3.9 C 0 km/h
603 29-02-2004 00:48:36 -3.9 C 2.36 g/m*3 -3.9 C 0 km/h
604 29-02-2004 01:00:39 -4 C 2.34 g/m*3 -4 C 0 km/h
605 29-02-2004 01:12:39 -4.1 C 2.32 g/m*3 -4.1 C 0 km/h
606 29-02-2004 01:24:34 -4.1 C 2.36 g/m*3 -4.1 C 0 km/h
607 29-02-2004 01:36:37 -3.9 C 2.39 g/m*3 -3.9 C 0 km/h
608 29-02-2004 01:48:30 -4.2 C 2.34 g/m*3 -4.2 C 0 km/h
609 29-02-2004 02:00:33 -4.2 C 2.34 g/m*3 -4.2 C 0 km/h
610 29-02-2004 02:12:28 -4.3 C 2.33 g/m*3 -4.3 C 0 km/h
611 29-02-2004 02:24:31 -4.6 C 2.28 g/m*3 -4.6 C 0 km/h
612 29-02-2004 02:36:31 -4.8 C 2.28 g/m*3 -4.8 C 0 km/h
613 29-02-2004 02:58:04 -4.8 C 2.35 g/m*3 -4.8 C 0 km/h
614 29-02-2004 03:11:05 -4.9 C 2.33 g/m*3 -4.9 C 0 km/h
615 29-02-2004 03:23:05 -4.9 C 2.33 g/m*3 -4.9 C 0 km/h
616 29-02-2004 03:37:04 -5 C 2.32 g/m*3 -5 C 0 km/h
617 29-02-2004 03:49:04 -5 C 2.35 g/m*3 -5 C 0 km/h
618 29-02-2004 04:02:04 -5.1 C 2.33 g/m*3 -5.1 C 0 km/h
619 29-02-2004 04:14:04 -5.4 C 2.28 g/m*3 -5.4 C 0 km/h
620 29-02-2004 04:27:04 -5.6 C 2.25 g/m*3 -5.6 C 0 km/h
621 29-02-2004 04:40:04 -5.5 C 2.3 g/m*3 -5.5 C 0 km/h
622 29-02-2004 04:53:04 -5.6 C 2.28 g/m*3 -5.6 C 0 km/h
623 29-02-2004 05:01:15 -5.7 C 2.3 g/m*3 -5.7 C 0 km/h
624 29-02-2004 05:06:05 -5.7 C 2.27 g/m*3 -5.7 C 0 km/h
625 29-02-2004 05:13:18 -5.3 C 2.4 g/m*3 -5.3 C 0 km/h
Sensor: Nr:Datum:Temp:Abs-Feuchte:Windchill:Wind:
Aussen-T/F 626 29-02-2004 05:25:12 -4.8 C 2.45 g/m*3 -4.8 C 0 km/h
627 29-02-2004 05:37:12 -4.6 C 2.42 g/m*3 -4.6 C 0 km/h
628 29-02-2004 05:49:15 -4.7 C 2.37 g/m*3 -4.7 C 0 km/h
629 29-02-2004 06:01:09 -4.6 C 2.38 g/m*3 -4.6 C 0 km/h
630 29-02-2004 06:13:12 -4.4 C 2.42 g/m*3 -4.4 C 0 km/h
631 29-02-2004 06:25:53 -4.1 C 2.47 g/m*3 -4.1 C 0 km/h
632 29-02-2004 06:37:07 -3.9 C 2.47 g/m*3 -3.9 C 0 km/h
633 29-02-2004 06:49:07 -4 C 2.45 g/m*3 -4 C 0 km/h
634 29-02-2004 07:01:32 -3.9 C 2.47 g/m*3 -3.9 C 0 km/h
635 29-02-2004 07:13:46 -4.1 C 2.43 g/m*3 -4.1 C 0 km/h
636 29-02-2004 07:25:11 -4 C 2.49 g/m*3 -4 C 0 km/h
637 29-02-2004 07:37:11 -4.3 C 2.43 g/m*3 -4.3 C 0 km/h
638 29-02-2004 07:49:25 -4.6 C 2.42 g/m*3 -4.6 C 0 km/h
639 29-02-2004 08:01:49 -4.7 C 2.4 g/m*3 -4.7 C 0 km/h
640 29-02-2004 08:13:49 -4.8 C 2.42 g/m*3 -4.8 C 0 km/h
641 29-02-2004 08:25:03 -4.8 C 2.42 g/m*3 -4.8 C 0 km/h
642 29-02-2004 08:37:28 -4.7 C 2.44 g/m*3 -4.7 C 0 km/h
643 29-02-2004 08:49:42 -4.6 C 2.49 g/m*3 -4.6 C 0 km/h
644 29-02-2004 09:01:42 -4.4 C 2.52 g/m*3 -4.4 C 0 km/h
645 29-02-2004 09:13:06 -3.8 C 2.6 g/m*3 -3.8 C 0 km/h
646 29-02-2004 09:25:21 -3.4 C 2.63 g/m*3 -3.4 C 0 km/h
647 29-02-2004 09:37:45 -3.3 C 2.61 g/m*3 -3.3 C 0 km/h
648 29-02-2004 09:49:45 -3 C 2.71 g/m*3 -3 C 0 km/h
649 29-02-2004 10:01:59 -2.5 C 2.77 g/m*3 -2.5 C 0 km/h
650 29-02-2004 10:13:23 -2.2 C 2.62 g/m*3 -2.2 C 0 km/h
Sensor: Nr:Datum:Temp:Abs-Feuchte:Windchill:Wind:
Aussen-T/F 651 29-02-2004 10:25:37 -2 C 2.74 g/m*3 -2 C 0 km/h
652 29-02-2004 10:37:37 -1.6 C 2.77 g/m*3 -1.6 C 0 km/h
653 29-02-2004 10:49:02 -1.1 C 2.87 g/m*3 -1.1 C 0 km/h
654 29-02-2004 11:01:16 -0.6 C 2.88 g/m*3 -0.6 C 0 km/h
655 29-02-2004 11:13:41 0.2 C 2.85 g/m*3 0.2 C 0 km/h
656 29-02-2004 11:25:41 0.8 C 2.87 g/m*3 0.8 C 0 km/h
657 29-02-2004 11:37:00 1.3 C 2.86 g/m*3 1.3 C 0 km/h
658 29-02-2004 11:49:02 0.9 C 2.73 g/m*3 0.9 C 0 km/h
659 29-02-2004 12:01:01 0.9 C 2.73 g/m*3 0.9 C 0 km/h
660 29-02-2004 12:13:01 0.6 C 2.68 g/m*3 0.6 C 0 km/h
661 29-02-2004 12:25:01 0.6 C 2.68 g/m*3 0.6 C 0 km/h
662 29-02-2004 12:37:02 0.8 C 2.66 g/m*3 0.8 C 0 km/h
663 29-02-2004 12:49:00 1.4 C 2.72 g/m*3 1.4 C 0 km/h
664 29-02-2004 13:01:00 1.9 C 2.76 g/m*3 1.9 C 0 km/h
665 29-02-2004 13:13:00 2.2 C 2.7 g/m*3 2.2 C 0 km/h
666 29-02-2004 13:25:59 3.2 C 2.77 g/m*3 3.2 C 0 km/h
667 29-02-2004 13:37:58 3.8 C 2.63 g/m*3 3.8 C 0 km/h
668 29-02-2004 13:49:01 3.8 C 2.63 g/m*3 3.8 C 0 km/h
669 29-02-2004 14:01:01 4.2 C 2.45 g/m*3 4.2 C 0 km/h
670 29-02-2004 14:13:01 3.5 C 2.4 g/m*3 3.5 C 0 km/h
671 29-02-2004 14:25:01 3.3 C 2.49 g/m*3 3.3 C 0 km/h
672 29-02-2004 14:37:01 3.2 C 2.59 g/m*3 3.2 C 0 km/h
673 29-02-2004 14:49:00 3.9 C 2.46 g/m*3 3.9 C 0 km/h
674 29-02-2004 15:01:00 4.6 C 2.38 g/m*3 4.6 C 0 km/h
675 29-02-2004 15:13:00 5.2 C 2.41 g/m*3 5.2 C 0 km/h
Sensor: Nr:Datum:Temp:Abs-Feuchte:Windchill:Wind:
Aussen-T/F 676 29-02-2004 15:25:58 4.7 C 2.33 g/m*3 4.7 C 0 km/h
677 29-02-2004 15:37:57 5.5 C 2.39 g/m*3 5.5 C 0 km/h
678 29-02-2004 15:49:01 4.6 C 2.32 g/m*3 4.6 C 0 km/h
679 29-02-2004 16:01:01 5.2 C 2.34 g/m*3 5.2 C 0 km/h
680 29-02-2004 16:13:01 4.5 C 2.3 g/m*3 4.5 C 0 km/h
681 29-02-2004 16:25:01 4.7 C 2.33 g/m*3 4.7 C 0 km/h
682 29-02-2004 16:37:01 5.2 C 2.41 g/m*3 5.2 C 0 km/h
683 29-02-2004 16:49:00 5.2 C 2.2 g/m*3 5.2 C 0 km/h
684 29-02-2004 17:01:00 5.2 C 2.2 g/m*3 5.2 C 0 km/h
685 29-02-2004 17:13:00 5.5 C 2.39 g/m*3 5.5 C 0 km/h
686 29-02-2004 17:25:58 4.7 C 2.73 g/m*3 4.7 C 0 km/h
687 29-02-2004 17:37:57 3.4 C 2.93 g/m*3 3.4 C 0 km/h
688 29-02-2004 17:49:03 3.2 C 3.01 g/m*3 3.2 C 0 km/h
689 29-02-2004 18:01:01 2.5 C 2.87 g/m*3 2.5 C 0 km/h
690 29-02-2004 18:13:01 2.2 C 2.7 g/m*3 2.2 C 0 km/h
691 29-02-2004 18:25:01 1.8 C 2.74 g/m*3 1.8 C 0 km/h
692 29-02-2004 18:37:01 1.5 C 2.79 g/m*3 1.5 C 0 km/h
693 29-02-2004 18:49:00 1.1 C 2.82 g/m*3 1.1 C 0 km/h
694 29-02-2004 19:01:59 0.8 C 2.87 g/m*3 0.8 C 0 km/h
695 29-02-2004 19:13:59 0.6 C 2.83 g/m*3 0.6 C 0 km/h
696 29-02-2004 19:25:58 0.3 C 2.92 g/m*3 0.3 C 0 km/h
697 29-02-2004 19:37:57 0.1 C 2.93 g/m*3 0.1 C 0 km/h
698 29-02-2004 19:49:01 0.3 C 2.97 g/m*3 0.3 C 0 km/h
699 29-02-2004 20:01:01 0.2 C 2.95 g/m*3 0.2 C 0 km/h
700 29-02-2004 20:13:01 0.1 C 2.98 g/m*3 0.1 C 0 km/h
Sensor: Nr:Datum:Temp:Abs-Feuchte:Windchill:Wind:
Aussen-T/F 701 29-02-2004 20:25:01 -0.1 C 2.94 g/m*3 -0.1 C 0 km/h
702 29-02-2004 20:37:00 -0.3 C 2.94 g/m*3 -0.3 C 0 km/h
703 29-02-2004 20:49:01 -0.4 C 2.97 g/m*3 -0.4 C 0 km/h
704 29-02-2004 21:01:01 -0.6 C 3.02 g/m*3 -0.6 C 0 km/h
705 29-02-2004 21:13:01 -0.8 C 3.03 g/m*3 -0.8 C 0 km/h
706 29-02-2004 21:25:01 -0.9 C 3 g/m*3 -0.9 C 0 km/h
707 29-02-2004 21:37:01 -1 C 2.98 g/m*3 -1 C 0 km/h
708 29-02-2004 21:49:01 -1.1 C 2.96 g/m*3 -1.1 C 0 km/h
709 29-02-2004 22:01:00 -1.2 C 2.94 g/m*3 -1.2 C 0 km/h
710 29-02-2004 22:13:00 -1.2 C 2.94 g/m*3 -1.2 C 0 km/h
711 29-02-2004 22:25:58 -1.4 C 2.9 g/m*3 -1.4 C 0 km/h
712 29-02-2004 22:37:57 -1.5 C 2.88 g/m*3 -1.5 C 0 km/h
713 29-02-2004 22:49:01 -1.6 C 2.86 g/m*3 -1.6 C 0 km/h
714 29-02-2004 23:01:01 -1.6 C 2.82 g/m*3 -1.6 C 0 km/h
715 29-02-2004 23:13:01 -1.7 C 2.8 g/m*3 -1.7 C 0 km/h
716 29-02-2004 23:25:01 -1.7 C 2.8 g/m*3 -1.7 C 0 km/h
717 29-02-2004 23:37:01 -1.7 C 2.8 g/m*3 -1.7 C 0 km/h
718 29-02-2004 23:49:01 -1.8 C 2.78 g/m*3 -1.8 C 0 km/h
719 01-03-2004 00:01:00 -1.8 C 2.78 g/m*3 -1.8 C 0 km/h
720 01-03-2004 00:13:01 -1.8 C 2.74 g/m*3 -1.8 C 0 km/h
721 01-03-2004 00:25:00 -1.7 C 2.71 g/m*3 -1.7 C 0 km/h
722 01-03-2004 00:37:00 -1.8 C 2.74 g/m*3 -1.8 C 0 km/h
723 01-03-2004 00:49:00 -1.9 C 2.72 g/m*3 -1.9 C 0 km/h
724 01-03-2004 01:01:00 -2 C 2.7 g/m*3 -2 C 0 km/h
725 01-03-2004 01:13:00 -2 C 2.7 g/m*3 -2 C 0 km/h
Sensor: Nr:Datum:Temp:Abs-Feuchte:Windchill:Wind:
Aussen-T/F 726 01-03-2004 01:25:01 -2.2 C 2.62 g/m*3 -2.2 C 0 km/h
727 01-03-2004 01:37:01 -2.3 C 2.56 g/m*3 -2.3 C 0 km/h
728 01-03-2004 01:49:00 -2.3 C 2.52 g/m*3 -2.3 C 0 km/h
729 01-03-2004 02:01:00 -2.3 C 2.52 g/m*3 -2.3 C 0 km/h
730 01-03-2004 02:13:00 -2.6 C 2.51 g/m*3 -2.6 C 0 km/h
731 01-03-2004 02:25:00 -2.6 C 2.55 g/m*3 -2.6 C 0 km/h
732 01-03-2004 02:37:00 -2.8 C 2.51 g/m*3 -2.8 C 0 km/h
733 01-03-2004 02:50:03 -2.8 C 2.51 g/m*3 -2.8 C 0 km/h
734 01-03-2004 03:02:03 -3 C 2.51 g/m*3 -3 C 0 km/h
735 01-03-2004 03:14:03 -3.3 C 2.46 g/m*3 -3.3 C 0 km/h
736 01-03-2004 03:26:03 -3.3 C 2.5 g/m*3 -3.3 C 0 km/h
737 01-03-2004 03:37:59 -3.4 C 2.48 g/m*3 -3.4 C 0 km/h
738 01-03-2004 03:49:59 -3.4 C 2.48 g/m*3 -3.4 C 0 km/h
739 01-03-2004 04:02:59 -3.1 C 2.54 g/m*3 -3.1 C 0 km/h
740 01-03-2004 04:14:58 -3 C 2.51 g/m*3 -3 C 0 km/h
741 01-03-2004 04:26:58 -2.9 C 2.57 g/m*3 -2.9 C 0 km/h
742 01-03-2004 04:38:57 -2.9 C 2.57 g/m*3 -2.9 C 0 km/h
743 01-03-2004 04:50:01 -2.9 C 2.61 g/m*3 -2.9 C 0 km/h
744 01-03-2004 05:02:01 -3.2 C 2.56 g/m*3 -3.2 C 0 km/h
745 01-03-2004 05:14:01 -3.4 C 2.63 g/m*3 -3.4 C 0 km/h
746 01-03-2004 05:26:01 -3.5 C 2.62 g/m*3 -3.5 C 0 km/h
747 01-03-2004 05:38:00 -3.8 C 2.63 g/m*3 -3.8 C 0 km/h
748 01-03-2004 05:50:01 -3.8 C 2.67 g/m*3 -3.8 C 0 km/h
749 01-03-2004 06:02:01 -3.8 C 2.67 g/m*3 -3.8 C 0 km/h
750 01-03-2004 06:14:01 -3.9 C 2.65 g/m*3 -3.9 C 0 km/h
Sensor: Nr:Datum:Temp:Abs-Feuchte:Windchill:Wind:
Aussen-T/F 751 01-03-2004 06:26:01 -4 C 2.63 g/m*3 -4 C 0 km/h
752 01-03-2004 06:38:01 -4.1 C 2.65 g/m*3 -4.1 C 0 km/h
753 01-03-2004 06:50:00 -4.1 C 2.65 g/m*3 -4.1 C 0 km/h
754 01-03-2004 07:02:00 -4.4 C 2.56 g/m*3 -4.4 C 0 km/h
755 01-03-2004 07:14:00 -4.4 C 2.6 g/m*3 -4.4 C 0 km/h
756 01-03-2004 07:26:59 -4.2 C 2.63 g/m*3 -4.2 C 0 km/h
757 01-03-2004 07:38:58 -4.3 C 2.61 g/m*3 -4.3 C 0 km/h
758 01-03-2004 07:50:01 -4.2 C 2.63 g/m*3 -4.2 C 0 km/h
759 01-03-2004 08:02:00 -4.2 C 2.63 g/m*3 -4.2 C 0 km/h
760 01-03-2004 08:14:00 -4.1 C 2.65 g/m*3 -4.1 C 0 km/h
761 01-03-2004 08:26:01 -4.3 C 2.61 g/m*3 -4.3 C 0 km/h
762 01-03-2004 08:38:01 -4.2 C 2.63 g/m*3 -4.2 C 0 km/h
763 01-03-2004 08:50:01 -4.2 C 2.63 g/m*3 -4.2 C 0 km/h
764 01-03-2004 09:02:00 -3.9 C 2.65 g/m*3 -3.9 C 0 km/h
765 01-03-2004 09:14:00 -3.8 C 2.63 g/m*3 -3.8 C 0 km/h
766 01-03-2004 09:26:59 -3.5 C 2.69 g/m*3 -3.5 C 0 km/h
767 01-03-2004 09:38:58 -3.2 C 2.71 g/m*3 -3.2 C 0 km/h
768 01-03-2004 09:50:01 -2.8 C 2.75 g/m*3 -2.8 C 0 km/h
769 01-03-2004 10:02:01 -2.3 C 2.81 g/m*3 -2.3 C 0 km/h
770 01-03-2004 10:14:01 -1.9 C 2.76 g/m*3 -1.9 C 0 km/h
771 01-03-2004 10:26:01 -1.3 C 2.79 g/m*3 -1.3 C 0 km/h
772 01-03-2004 10:38:01 -0.9 C 2.78 g/m*3 -0.9 C 0 km/h
773 01-03-2004 10:50:00 -0.3 C 2.75 g/m*3 -0.3 C 0 km/h
774 01-03-2004 11:02:00 0.2 C 2.65 g/m*3 0.2 C 0 km/h
775 01-03-2004 11:14:00 0.5 C 2.61 g/m*3 0.5 C 0 km/h
Sensor: Nr:Datum:Temp:Abs-Feuchte:Windchill:Wind:
Aussen-T/F 776 01-03-2004 11:26:58 1.6 C 2.43 g/m*3 1.6 C 0 km/h
777 01-03-2004 11:38:57 1.4 C 2.4 g/m*3 1.4 C 0 km/h
778 01-03-2004 11:50:01 1.4 C 2.4 g/m*3 1.4 C 0 km/h
779 01-03-2004 12:02:01 2.2 C 2.42 g/m*3 2.2 C 0 km/h
780 01-03-2004 12:14:01 2 C 2.22 g/m*3 2 C 0 km/h
781 01-03-2004 12:26:01 2.2 C 2.31 g/m*3 2.2 C 0 km/h
782 01-03-2004 12:38:01 3 C 2.32 g/m*3 3 C 0 km/h
783 01-03-2004 12:50:01 3.3 C 2.31 g/m*3 3.3 C 0 km/h
784 01-03-2004 13:02:01 2.3 C 2.21 g/m*3 2.3 C 0 km/h
785 01-03-2004 13:14:01 2.9 C 2.36 g/m*3 2.9 C 0 km/h
786 01-03-2004 13:26:01 3 C 2.08 g/m*3 3 C 0 km/h
787 01-03-2004 13:38:01 3.1 C 2.15 g/m*3 3.1 C 0 km/h
788 01-03-2004 13:50:00 4.3 C 2.21 g/m*3 4.3 C 0 km/h
789 01-03-2004 14:02:00 4.4 C 2.09 g/m*3 4.4 C 0 km/h
790 01-03-2004 14:14:00 3.7 C 2.18 g/m*3 3.7 C 0 km/h
791 01-03-2004 14:26:59 4 C 2.1 g/m*3 4 C 0 km/h
792 01-03-2004 14:38:57 4.7 C 2.2 g/m*3 4.7 C 0 km/h
793 01-03-2004 14:50:01 4 C 2.03 g/m*3 4 C 0 km/h
794 01-03-2004 15:02:01 3.8 C 2.2 g/m*3 3.8 C 0 km/h
795 01-03-2004 15:14:01 4.4 C 2.22 g/m*3 4.4 C 0 km/h
796 01-03-2004 15:26:01 4.3 C 2.14 g/m*3 4.3 C 0 km/h
797 01-03-2004 15:38:01 4.8 C 2.08 g/m*3 4.8 C 0 km/h
798 01-03-2004 15:50:00 4.9 C 2.03 g/m*3 4.9 C 0 km/h
799 01-03-2004 16:14:00 5.2 C 1.93 g/m*3 5.2 C 0 km/h
800 01-03-2004 16:14:58 5.1 C 1.92 g/m*3 5.1 C 0 km/h
Sensor: Nr:Datum:Temp:Abs-Feuchte:Windchill:Wind:
Aussen-T/F 801 01-03-2004 16:26:58 5.9 C 2.02 g/m*3 5.9 C 0 km/h
802 01-03-2004 16:38:57 4.9 C 2.03 g/m*3 4.9 C 0 km/h
803 01-03-2004 16:50:01 5.1 C 2.05 g/m*3 5.1 C 0 km/h
804 01-03-2004 17:02:01 4.8 C 2.15 g/m*3 4.8 C 0 km/h
805 01-03-2004 17:14:01 4.2 C 2.19 g/m*3 4.2 C 0 km/h
806 01-03-2004 17:26:01 4 C 2.16 g/m*3 4 C 0 km/h
807 01-03-2004 17:38:01 3.5 C 2.21 g/m*3 3.5 C 0 km/h
808 01-03-2004 17:50:01 2.7 C 2.27 g/m*3 2.7 C 0 km/h
809 01-03-2004 18:02:00 2.2 C 2.31 g/m*3 2.2 C 0 km/h
810 01-03-2004 18:14:00 1.8 C 2.41 g/m*3 1.8 C 0 km/h
811 01-03-2004 18:26:59 1.6 C 2.43 g/m*3 1.6 C 0 km/h
812 01-03-2004 18:38:58 1.3 C 2.44 g/m*3 1.3 C 0 km/h
813 01-03-2004 18:50:01 1.1 C 2.46 g/m*3 1.1 C 0 km/h
814 01-03-2004 19:02:01 1 C 2.49 g/m*3 1 C 0 km/h
815 01-03-2004 19:14:01 1 C 2.49 g/m*3 1 C 0 km/h
816 01-03-2004 19:26:01 1 C 2.54 g/m*3 1 C 0 km/h
817 01-03-2004 19:38:01 0.8 C 2.56 g/m*3 0.8 C 0 km/h
818 01-03-2004 19:50:01 0.7 C 2.59 g/m*3 0.7 C 0 km/h
819 01-03-2004 20:13:59 0.6 C 2.58 g/m*3 0.6 C 0 km/h
820 01-03-2004 20:14:58 0.6 C 2.63 g/m*3 0.6 C 0 km/h
821 01-03-2004 20:26:58 0.6 C 2.68 g/m*3 0.6 C 0 km/h
822 01-03-2004 20:38:57 0.6 C 2.68 g/m*3 0.6 C 0 km/h
823 01-03-2004 20:50:01 0.8 C 2.66 g/m*3 0.8 C 0 km/h
824 01-03-2004 21:02:01 1 C 2.65 g/m*3 1 C 0 km/h
825 01-03-2004 21:14:01 1 C 2.65 g/m*3 1 C 0 km/h
Sensor: Nr:Datum:Temp:Abs-Feuchte:Windchill:Wind:
Aussen-T/F 826 01-03-2004 21:26:01 1.1 C 2.67 g/m*3 1.1 C 0 km/h
827 01-03-2004 21:38:01 1.1 C 2.67 g/m*3 1.1 C 0 km/h
828 01-03-2004 21:50:00 1.1 C 2.72 g/m*3 1.1 C 0 km/h
829 01-03-2004 22:02:00 1 C 2.7 g/m*3 1 C 0 km/h
830 01-03-2004 22:14:00 1 C 2.75 g/m*3 1 C 0 km/h
831 01-03-2004 22:26:58 0.9 C 2.84 g/m*3 0.9 C 0 km/h
832 01-03-2004 22:38:57 1 C 2.8 g/m*3 1 C 0 km/h
833 01-03-2004 22:50:01 1 C 2.91 g/m*3 1 C 0 km/h
834 01-03-2004 23:02:01 1 C 2.85 g/m*3 1 C 0 km/h
835 01-03-2004 23:14:01 1 C 2.96 g/m*3 1 C 0 km/h
836 01-03-2004 23:26:01 1 C 3.11 g/m*3 1 C 0 km/h
837 01-03-2004 23:38:01 0.7 C 3.2 g/m*3 0.7 C 0 km/h
838 01-03-2004 23:50:00 0.6 C 3.33 g/m*3 0.6 C 0 km/h
839 02-03-2004 00:02:59 0.5 C 3.26 g/m*3 0.5 C 0 km/h
840 02-03-2004 00:14:58 0.5 C 3.31 g/m*3 0.5 C 0 km/h
841 02-03-2004 00:26:58 0.4 C 3.34 g/m*3 0.4 C 0 km/h
842 02-03-2004 00:38:57 0.4 C 3.34 g/m*3 0.4 C 0 km/h
843 02-03-2004 00:50:01 0.4 C 3.34 g/m*3 0.4 C 0 km/h
844 02-03-2004 01:02:01 0.3 C 3.31 g/m*3 0.3 C 0 km/h
845 02-03-2004 01:14:01 0.3 C 3.31 g/m*3 0.3 C 0 km/h
846 02-03-2004 01:26:01 0.2 C 3.29 g/m*3 0.2 C 0 km/h
847 02-03-2004 01:38:01 0.2 C 3.34 g/m*3 0.2 C 0 km/h
848 02-03-2004 01:50:01 0.2 C 3.29 g/m*3 0.2 C 0 km/h
849 02-03-2004 02:02:01 0.2 C 3.29 g/m*3 0.2 C 0 km/h
850 02-03-2004 02:14:01 0.3 C 3.31 g/m*3 0.3 C 0 km/h
Sensor: Nr:Datum:Temp:Abs-Feuchte:Windchill:Wind:
Aussen-T/F 851 02-03-2004 02:26:01 0.4 C 3.34 g/m*3 0.4 C 0 km/h
852 02-03-2004 02:38:01 0.5 C 3.31 g/m*3 0.5 C 0 km/h
853 02-03-2004 02:51:01 0.5 C 3.31 g/m*3 0.5 C 0 km/h
854 02-03-2004 03:03:01 0.6 C 3.33 g/m*3 0.6 C 0 km/h
855 02-03-2004 03:15:59 0.7 C 3.36 g/m*3 0.7 C 0 km/h
856 02-03-2004 03:26:59 0.7 C 3.36 g/m*3 0.7 C 0 km/h
857 02-03-2004 03:39:01 0.7 C 3.36 g/m*3 0.7 C 0 km/h
858 02-03-2004 03:51:01 0.8 C 3.38 g/m*3 0.8 C 0 km/h
859 02-03-2004 04:03:01 0.8 C 3.38 g/m*3 0.8 C 0 km/h
860 02-03-2004 04:15:01 1 C 3.37 g/m*3 1 C 0 km/h
861 02-03-2004 04:27:01 0.9 C 3.45 g/m*3 0.9 C 0 km/h
862 02-03-2004 04:39:01 1.1 C 3.5 g/m*3 1.1 C 0 km/h
863 02-03-2004 04:51:00 1.5 C 3.76 g/m*3 1.5 C 0 km/h
864 02-03-2004 05:03:59 1.8 C 3.84 g/m*3 1.8 C 0 km/h
865 02-03-2004 05:15:58 1.8 C 3.95 g/m*3 1.8 C 0 km/h
866 02-03-2004 05:27:58 1.8 C 4.06 g/m*3 1.8 C 0 km/h
867 02-03-2004 05:39:57 1.8 C 4.06 g/m*3 1.8 C 0 km/h
868 02-03-2004 05:51:01 1.9 C 4.19 g/m*3 1.9 C 0 km/h
869 02-03-2004 06:03:01 1.8 C 4.22 g/m*3 1.8 C 0 km/h
870 02-03-2004 06:15:01 1.7 C 4.25 g/m*3 1.7 C 0 km/h
871 02-03-2004 06:27:01 1.7 C 4.25 g/m*3 1.7 C 0 km/h
872 02-03-2004 06:39:00 1.7 C 4.25 g/m*3 1.7 C 0 km/h
873 02-03-2004 06:51:01 1.8 C 4.28 g/m*3 1.8 C 0 km/h
874 02-03-2004 07:03:01 1.8 C 4.33 g/m*3 1.8 C 0 km/h
875 02-03-2004 07:15:01 1.8 C 4.33 g/m*3 1.8 C 0 km/h
Sensor: Nr:Datum:Temp:Abs-Feuchte:Windchill:Wind:
Aussen-T/F 876 02-03-2004 07:27:01 1.9 C 4.36 g/m*3 1.9 C 0 km/h
877 02-03-2004 07:39:01 2 C 4.33 g/m*3 2 C 0 km/h
878 02-03-2004 07:51:00 2 C 4.33 g/m*3 2 C 0 km/h
879 02-03-2004 08:03:00 2.2 C 4.39 g/m*3 2.2 C 0 km/h
880 02-03-2004 08:15:58 2.1 C 4.42 g/m*3 2.1 C 0 km/h
881 02-03-2004 08:27:58 2.1 C 4.42 g/m*3 2.1 C 0 km/h
882 02-03-2004 08:39:57 2.1 C 4.48 g/m*3 2.1 C 0 km/h
883 02-03-2004 08:51:01 2.1 C 4.53 g/m*3 2.1 C 0 km/h
884 02-03-2004 09:03:01 2.2 C 4.56 g/m*3 2.2 C 0 km/h
885 02-03-2004 09:15:01 2.3 C 4.54 g/m*3 2.3 C 0 km/h
886 02-03-2004 09:27:01 2.4 C 4.51 g/m*3 2.4 C 0 km/h
887 02-03-2004 09:39:01 2.6 C 4.57 g/m*3 2.6 C 0 km/h
888 02-03-2004 09:51:01 2.8 C 4.58 g/m*3 2.8 C 0 km/h
889 02-03-2004 10:03:01 3 C 4.52 g/m*3 3 C 0 km/h
890 02-03-2004 10:15:02 3 C 4.52 g/m*3 3 C 0 km/h
891 02-03-2004 10:27:02 3.1 C 4.49 g/m*3 3.1 C 0 km/h
892 02-03-2004 10:39:01 3.1 C 4.49 g/m*3 3.1 C 0 km/h
893 02-03-2004 10:51:00 3.1 C 4.49 g/m*3 3.1 C 0 km/h
894 02-03-2004 11:03:00 2.9 C 4.49 g/m*3 2.9 C 0 km/h
895 02-03-2004 11:15:59 3 C 4.46 g/m*3 3 C 0 km/h
896 02-03-2004 11:27:59 3 C 4.4 g/m*3 3 C 0 km/h
897 02-03-2004 11:39:57 3.1 C 4.43 g/m*3 3.1 C 0 km/h
898 02-03-2004 11:51:01 3.3 C 4.43 g/m*3 3.3 C 0 km/h
899 02-03-2004 12:03:01 3.3 C 4.37 g/m*3 3.3 C 0 km/h
900 02-03-2004 12:15:01 3.3 C 4.37 g/m*3 3.3 C 0 km/h
Sensor: Nr:Datum:Temp:Abs-Feuchte:Windchill:Wind:
Aussen-T/F 901 02-03-2004 12:27:01 3.5 C 4.37 g/m*3 3.5 C 0 km/h
902 02-03-2004 12:39:02 3.6 C 4.21 g/m*3 3.6 C 0 km/h
903 02-03-2004 12:51:00 3.8 C 3.95 g/m*3 3.8 C 0 km/h
904 02-03-2004 13:03:00 4 C 3.81 g/m*3 4 C 0 km/h
905 02-03-2004 13:15:59 4.3 C 3.7 g/m*3 4.3 C 0 km/h
906 02-03-2004 13:27:59 4.2 C 3.67 g/m*3 4.2 C 0 km/h
907 02-03-2004 13:39:58 4.5 C 3.75 g/m*3 4.5 C 0 km/h
908 02-03-2004 13:51:01 4.5 C 3.75 g/m*3 4.5 C 0 km/h
909 02-03-2004 14:03:00 4.4 C 3.66 g/m*3 4.4 C 0 km/h
910 02-03-2004 14:15:00 4.5 C 3.62 g/m*3 4.5 C 0 km/h
911 02-03-2004 14:27:00 4.7 C 3.53 g/m*3 4.7 C 0 km/h
912 02-03-2004 14:39:00 4.9 C 3.44 g/m*3 4.9 C 0 km/h
913 02-03-2004 14:51:01 5 C 3.47 g/m*3 5 C 0 km/h
914 02-03-2004 15:03:01 5.3 C 3.47 g/m*3 5.3 C 0 km/h
915 02-03-2004 15:15:01 5.2 C 3.31 g/m*3 5.2 C 0 km/h
916 02-03-2004 15:27:01 5.4 C 3.35 g/m*3 5.4 C 0 km/h
917 02-03-2004 15:39:01 6 C 3.41 g/m*3 6 C 0 km/h
918 02-03-2004 15:51:01 6.4 C 3.5 g/m*3 6.4 C 0 km/h
919 02-03-2004 16:03:01 6.4 C 3.2 g/m*3 6.4 C 0 km/h
920 02-03-2004 16:15:01 6.7 C 3.34 g/m*3 6.7 C 0 km/h
921 02-03-2004 16:27:01 7 C 3.18 g/m*3 7 C 0 km/h
922 02-03-2004 16:39:01 5.7 C 3.27 g/m*3 5.7 C 0 km/h
923 02-03-2004 16:51:00 5.8 C 3.37 g/m*3 5.8 C 0 km/h
924 02-03-2004 17:03:00 5.7 C 3.34 g/m*3 5.7 C 0 km/h
925 02-03-2004 17:15:58 5.5 C 3.37 g/m*3 5.5 C 0 km/h
Sensor: Nr:Datum:Temp:Abs-Feuchte:Windchill:Wind:
Aussen-T/F 926 02-03-2004 17:27:58 5.4 C 3.35 g/m*3 5.4 C 0 km/h
927 02-03-2004 17:39:57 5.4 C 3.35 g/m*3 5.4 C 0 km/h
928 02-03-2004 17:51:01 5.4 C 3.35 g/m*3 5.4 C 0 km/h
929 02-03-2004 18:03:01 5.3 C 3.33 g/m*3 5.3 C 0 km/h
930 02-03-2004 18:15:01 5 C 3.26 g/m*3 5 C 0 km/h
931 02-03-2004 18:27:01 4.7 C 3.33 g/m*3 4.7 C 0 km/h
932 02-03-2004 18:39:01 4.8 C 3.35 g/m*3 4.8 C 0 km/h
933 02-03-2004 18:51:01 4.6 C 3.37 g/m*3 4.6 C 0 km/h
934 02-03-2004 19:03:01 4.6 C 3.31 g/m*3 4.6 C 0 km/h
935 02-03-2004 19:15:01 4.3 C 3.31 g/m*3 4.3 C 0 km/h
936 02-03-2004 19:27:01 4.3 C 3.31 g/m*3 4.3 C 0 km/h
937 02-03-2004 19:39:01 4.3 C 3.31 g/m*3 4.3 C 0 km/h
938 02-03-2004 19:51:01 4.2 C 3.29 g/m*3 4.2 C 0 km/h
939 02-03-2004 20:03:00 4.2 C 3.29 g/m*3 4.2 C 0 km/h
940 02-03-2004 20:15:59 4 C 3.31 g/m*3 4 C 0 km/h
941 02-03-2004 20:27:59 4 C 3.31 g/m*3 4 C 0 km/h
942 02-03-2004 20:39:57 4 C 3.31 g/m*3 4 C 0 km/h
943 02-03-2004 20:51:01 3.9 C 3.41 g/m*3 3.9 C 0 km/h
944 02-03-2004 21:03:01 3.8 C 3.39 g/m*3 3.8 C 0 km/h
945 02-03-2004 21:15:01 3.8 C 3.45 g/m*3 3.8 C 0 km/h
946 02-03-2004 21:27:01 3.8 C 3.45 g/m*3 3.8 C 0 km/h
947 02-03-2004 21:39:01 3.8 C 3.51 g/m*3 3.8 C 0 km/h
948 02-03-2004 21:51:00 3.7 C 3.43 g/m*3 3.7 C 0 km/h
949 02-03-2004 22:03:00 3.6 C 3.47 g/m*3 3.6 C 0 km/h
950 02-03-2004 22:15:58 3.6 C 3.53 g/m*3 3.6 C 0 km/h
Sensor: Nr:Datum:Temp:Abs-Feuchte:Windchill:Wind:
Aussen-T/F 951 02-03-2004 22:27:58 3.8 C 3.51 g/m*3 3.8 C 0 km/h
952 02-03-2004 22:39:57 3.8 C 3.51 g/m*3 3.8 C 0 km/h
953 02-03-2004 22:51:01 3.9 C 3.54 g/m*3 3.9 C 0 km/h
954 02-03-2004 23:03:01 3.9 C 3.54 g/m*3 3.9 C 0 km/h
955 02-03-2004 23:15:01 3.9 C 3.54 g/m*3 3.9 C 0 km/h
956 02-03-2004 23:27:01 3.7 C 3.49 g/m*3 3.7 C 0 km/h
957 02-03-2004 23:39:01 3.6 C 3.47 g/m*3 3.6 C 0 km/h
958 02-03-2004 23:51:01 3.3 C 3.46 g/m*3 3.3 C 0 km/h

Legende:
   Min
   Max


Maximal/Minimal-Werte vom 24.02.2004 - 02.03.2004

Sensor Min Max Avg
Temp
(Aussen-T/F)
-6.2 °C
24-02-2004  07:03:01
7.3 °C
28-02-2004  15:07:01
0.06 °C
Abs-Feuchte
(Aussen-T/F)
1.92 g/m*3
01-03-2004  16:14:58
4.58 g/m*3
02-03-2004  09:51:01
2.95 g/m*3
Windchill
(Aussen-T/F)
-6.2 C
24-02-2004  07:03:01
7.3 C
28-02-2004  15:07:01
0.06 C

Die Daten stammen von einer Davis Vantage Pro 2 Wetter-Station und werden unter Linux mit der Software wview2wettercgi und aufbereitet. Alle Angaben erfolgen ohne Gewähr für ihre Vollständigkeit oder Richtigkeit.
Kontakt: Rainer Krienke krienke@uni-koblenz.de . Meine Webseiten an der Uni Koblenz oder privat.
Version: $Revision: 0.78 $